<?xml version="1.0" encoding="UTF-8"?><gpx xmlns="http://www.topografix.com/GPX/1/1" version="1.1" creator="iOrient"><trk><name>Открытые трейлы межсезонья 2019 - "Щелковский хутор"</name><trkseg><trkpt lat="56.2908900" lon="44.0144330"><time>2019-01-20T07:21:30.263</time></trkpt><trkpt lat="56.2908320" lon="44.0144650"><time>2019-01-20T07:21:33.257</time></trkpt><trkpt lat="56.2907930" lon="44.0145120"><time>2019-01-20T07:21:35.263</time></trkpt><trkpt lat="56.2907270" lon="44.0145520"><time>2019-01-20T07:21:38.977</time></trkpt><trkpt lat="56.2906820" lon="44.0146300"><time>2019-01-20T07:21:41.977</time></trkpt><trkpt lat="56.2906480" lon="44.0147150"><time>2019-01-20T07:21:44.977</time></trkpt><trkpt lat="56.2906180" lon="44.0148300"><time>2019-01-20T07:21:47.977</time></trkpt><trkpt lat="56.2905950" lon="44.0149070"><time>2019-01-20T07:21:49.980</time></trkpt><trkpt lat="56.2905730" lon="44.0149870"><time>2019-01-20T07:21:51.977</time></trkpt><trkpt lat="56.2905330" lon="44.0150720"><time>2019-01-20T07:21:53.977</time></trkpt><trkpt lat="56.2904900" lon="44.0151480"><time>2019-01-20T07:21:55.980</time></trkpt><trkpt lat="56.2904620" lon="44.0152300"><time>2019-01-20T07:21:57.977</time></trkpt><trkpt lat="56.2904280" lon="44.0153350"><time>2019-01-20T07:22:00.980</time></trkpt><trkpt lat="56.2904070" lon="44.0154250"><time>2019-01-20T07:22:02.977</time></trkpt><trkpt lat="56.2903880" lon="44.0155000"><time>2019-01-20T07:22:03.977</time></trkpt><trkpt lat="56.2903670" lon="44.0155730"><time>2019-01-20T07:22:05.980</time></trkpt><trkpt lat="56.2903330" lon="44.0156800"><time>2019-01-20T07:22:08.977</time></trkpt><trkpt lat="56.2902870" lon="44.0157550"><time>2019-01-20T07:22:10.980</time></trkpt><trkpt lat="56.2902430" lon="44.0158180"><time>2019-01-20T07:22:12.977</time></trkpt><trkpt lat="56.2901970" lon="44.0158670"><time>2019-01-20T07:22:14.980</time></trkpt><trkpt lat="56.2901480" lon="44.0159180"><time>2019-01-20T07:22:16.977</time></trkpt><trkpt lat="56.2901070" lon="44.0159870"><time>2019-01-20T07:22:18.977</time></trkpt><trkpt lat="56.2900670" lon="44.0160420"><time>2019-01-20T07:22:20.980</time></trkpt><trkpt lat="56.2900250" lon="44.0160870"><time>2019-01-20T07:22:22.980</time></trkpt><trkpt lat="56.2899780" lon="44.0161480"><time>2019-01-20T07:22:25.980</time></trkpt><trkpt lat="56.2899300" lon="44.0161950"><time>2019-01-20T07:22:27.980</time></trkpt><trkpt lat="56.2898750" lon="44.0162380"><time>2019-01-20T07:22:29.980</time></trkpt><trkpt lat="56.2898330" lon="44.0163120"><time>2019-01-20T07:22:31.980</time></trkpt><trkpt lat="56.2897920" lon="44.0163550"><time>2019-01-20T07:22:33.980</time></trkpt><trkpt lat="56.2897470" lon="44.0163930"><time>2019-01-20T07:22:35.983</time></trkpt><trkpt lat="56.2897000" lon="44.0164520"><time>2019-01-20T07:22:37.980</time></trkpt><trkpt lat="56.2896530" lon="44.0164920"><time>2019-01-20T07:22:39.980</time></trkpt><trkpt lat="56.2896080" lon="44.0165480"><time>2019-01-20T07:22:41.980</time></trkpt><trkpt lat="56.2895580" lon="44.0165980"><time>2019-01-20T07:22:45.980</time></trkpt><trkpt lat="56.2895070" lon="44.0166520"><time>2019-01-20T07:22:48.983</time></trkpt><trkpt lat="56.2894570" lon="44.0167150"><time>2019-01-20T07:22:51.980</time></trkpt><trkpt lat="56.2894120" lon="44.0167050"><time>2019-01-20T07:22:53.987</time></trkpt><trkpt lat="56.2893620" lon="44.0166750"><time>2019-01-20T07:22:56.980</time></trkpt><trkpt lat="56.2893220" lon="44.0166320"><time>2019-01-20T07:22:58.980</time></trkpt><trkpt lat="56.2892830" lon="44.0165830"><time>2019-01-20T07:23:01.983</time></trkpt><trkpt lat="56.2892250" lon="44.0165920"><time>2019-01-20T07:23:05.980</time></trkpt><trkpt lat="56.2891900" lon="44.0166450"><time>2019-01-20T07:23:08.980</time></trkpt><trkpt lat="56.2891300" lon="44.0166630"><time>2019-01-20T07:23:12.980</time></trkpt><trkpt lat="56.2890720" lon="44.0166550"><time>2019-01-20T07:23:15.983</time></trkpt><trkpt lat="56.2890130" lon="44.0166180"><time>2019-01-20T07:23:20.980</time></trkpt><trkpt lat="56.2889580" lon="44.0166080"><time>2019-01-20T07:23:24.983</time></trkpt><trkpt lat="56.2889120" lon="44.0165950"><time>2019-01-20T07:23:27.980</time></trkpt><trkpt lat="56.2888670" lon="44.0165970"><time>2019-01-20T07:23:30.980</time></trkpt><trkpt lat="56.2888170" lon="44.0165980"><time>2019-01-20T07:23:33.983</time></trkpt><trkpt lat="56.2887700" lon="44.0165920"><time>2019-01-20T07:23:36.980</time></trkpt><trkpt lat="56.2887070" lon="44.0166100"><time>2019-01-20T07:23:41.987</time></trkpt><trkpt lat="56.2886620" lon="44.0166070"><time>2019-01-20T07:23:43.987</time></trkpt><trkpt lat="56.2886150" lon="44.0166020"><time>2019-01-20T07:23:46.980</time></trkpt><trkpt lat="56.2885600" lon="44.0166030"><time>2019-01-20T07:23:51.980</time></trkpt><trkpt lat="56.2885030" lon="44.0166120"><time>2019-01-20T07:23:54.980</time></trkpt><trkpt lat="56.2884550" lon="44.0166150"><time>2019-01-20T07:23:58.980</time></trkpt><trkpt lat="56.2884000" lon="44.0166030"><time>2019-01-20T07:24:02.983</time></trkpt><trkpt lat="56.2883380" lon="44.0165730"><time>2019-01-20T07:24:06.980</time></trkpt><trkpt lat="56.2882920" lon="44.0165680"><time>2019-01-20T07:24:09.980</time></trkpt><trkpt lat="56.2882330" lon="44.0165680"><time>2019-01-20T07:24:12.980</time></trkpt><trkpt lat="56.2881720" lon="44.0165680"><time>2019-01-20T07:24:16.980</time></trkpt><trkpt lat="56.2881220" lon="44.0165570"><time>2019-01-20T07:24:20.980</time></trkpt><trkpt lat="56.2880750" lon="44.0165600"><time>2019-01-20T07:24:23.987</time></trkpt><trkpt lat="56.2880270" lon="44.0165550"><time>2019-01-20T07:24:27.983</time></trkpt><trkpt lat="56.2879770" lon="44.0165620"><time>2019-01-20T07:24:31.983</time></trkpt><trkpt lat="56.2879300" lon="44.0165700"><time>2019-01-20T07:24:34.980</time></trkpt><trkpt lat="56.2878830" lon="44.0165720"><time>2019-01-20T07:24:37.983</time></trkpt><trkpt lat="56.2878300" lon="44.0166000"><time>2019-01-20T07:24:40.983</time></trkpt><trkpt lat="56.2877720" lon="44.0166030"><time>2019-01-20T07:24:43.980</time></trkpt><trkpt lat="56.2877150" lon="44.0166280"><time>2019-01-20T07:24:46.980</time></trkpt><trkpt lat="56.2876720" lon="44.0166730"><time>2019-01-20T07:24:49.980</time></trkpt><trkpt lat="56.2876250" lon="44.0166970"><time>2019-01-20T07:24:52.980</time></trkpt><trkpt lat="56.2875770" lon="44.0167450"><time>2019-01-20T07:24:56.980</time></trkpt><trkpt lat="56.2875170" lon="44.0167780"><time>2019-01-20T07:24:59.987</time></trkpt><trkpt lat="56.2874570" lon="44.0167870"><time>2019-01-20T07:25:02.980</time></trkpt><trkpt lat="56.2874030" lon="44.0168120"><time>2019-01-20T07:25:05.987</time></trkpt><trkpt lat="56.2873480" lon="44.0168170"><time>2019-01-20T07:25:07.980</time></trkpt><trkpt lat="56.2872950" lon="44.0168130"><time>2019-01-20T07:25:09.983</time></trkpt><trkpt lat="56.2872300" lon="44.0167780"><time>2019-01-20T07:25:13.980</time></trkpt><trkpt lat="56.2871870" lon="44.0167300"><time>2019-01-20T07:25:16.980</time></trkpt><trkpt lat="56.2871300" lon="44.0166630"><time>2019-01-20T07:25:19.980</time></trkpt><trkpt lat="56.2870850" lon="44.0166180"><time>2019-01-20T07:25:21.980</time></trkpt><trkpt lat="56.2870220" lon="44.0165750"><time>2019-01-20T07:25:24.980</time></trkpt><trkpt lat="56.2869820" lon="44.0165320"><time>2019-01-20T07:25:26.980</time></trkpt><trkpt lat="56.2869220" lon="44.0164900"><time>2019-01-20T07:25:29.987</time></trkpt><trkpt lat="56.2868730" lon="44.0164570"><time>2019-01-20T07:25:31.980</time></trkpt><trkpt lat="56.2868250" lon="44.0164330"><time>2019-01-20T07:25:33.980</time></trkpt><trkpt lat="56.2867720" lon="44.0164080"><time>2019-01-20T07:25:35.987</time></trkpt><trkpt lat="56.2867220" lon="44.0163720"><time>2019-01-20T07:25:37.983</time></trkpt><trkpt lat="56.2866630" lon="44.0163380"><time>2019-01-20T07:25:40.980</time></trkpt><trkpt lat="56.2866120" lon="44.0163100"><time>2019-01-20T07:25:43.980</time></trkpt><trkpt lat="56.2865530" lon="44.0162680"><time>2019-01-20T07:25:46.980</time></trkpt><trkpt lat="56.2864980" lon="44.0162550"><time>2019-01-20T07:25:48.983</time></trkpt><trkpt lat="56.2864470" lon="44.0162120"><time>2019-01-20T07:25:51.980</time></trkpt><trkpt lat="56.2863920" lon="44.0161720"><time>2019-01-20T07:25:54.980</time></trkpt><trkpt lat="56.2863400" lon="44.0161200"><time>2019-01-20T07:25:57.980</time></trkpt><trkpt lat="56.2862880" lon="44.0160750"><time>2019-01-20T07:26:00.980</time></trkpt><trkpt lat="56.2862380" lon="44.0160350"><time>2019-01-20T07:26:03.983</time></trkpt><trkpt lat="56.2861920" lon="44.0159830"><time>2019-01-20T07:26:06.980</time></trkpt><trkpt lat="56.2861420" lon="44.0159300"><time>2019-01-20T07:26:09.980</time></trkpt><trkpt lat="56.2860930" lon="44.0158930"><time>2019-01-20T07:26:11.983</time></trkpt><trkpt lat="56.2860500" lon="44.0158670"><time>2019-01-20T07:26:13.983</time></trkpt><trkpt lat="56.2859980" lon="44.0158220"><time>2019-01-20T07:26:15.980</time></trkpt><trkpt lat="56.2859480" lon="44.0157630"><time>2019-01-20T07:26:18.980</time></trkpt><trkpt lat="56.2859020" lon="44.0157130"><time>2019-01-20T07:26:21.980</time></trkpt><trkpt lat="56.2858420" lon="44.0156730"><time>2019-01-20T07:26:24.980</time></trkpt><trkpt lat="56.2857930" lon="44.0156330"><time>2019-01-20T07:26:26.983</time></trkpt><trkpt lat="56.2857380" lon="44.0155970"><time>2019-01-20T07:26:29.987</time></trkpt><trkpt lat="56.2856900" lon="44.0155670"><time>2019-01-20T07:26:32.980</time></trkpt><trkpt lat="56.2856430" lon="44.0155200"><time>2019-01-20T07:26:35.987</time></trkpt><trkpt lat="56.2856000" lon="44.0154870"><time>2019-01-20T07:26:37.980</time></trkpt><trkpt lat="56.2855530" lon="44.0154620"><time>2019-01-20T07:26:39.980</time></trkpt><trkpt lat="56.2854970" lon="44.0154300"><time>2019-01-20T07:26:42.980</time></trkpt><trkpt lat="56.2854480" lon="44.0154020"><time>2019-01-20T07:26:44.980</time></trkpt><trkpt lat="56.2853980" lon="44.0153780"><time>2019-01-20T07:26:46.983</time></trkpt><trkpt lat="56.2853430" lon="44.0153450"><time>2019-01-20T07:26:50.040</time></trkpt><trkpt lat="56.2852900" lon="44.0153320"><time>2019-01-20T07:26:51.980</time></trkpt><trkpt lat="56.2852380" lon="44.0153050"><time>2019-01-20T07:26:54.983</time></trkpt><trkpt lat="56.2851920" lon="44.0152950"><time>2019-01-20T07:26:56.983</time></trkpt><trkpt lat="56.2851380" lon="44.0152800"><time>2019-01-20T07:26:58.980</time></trkpt><trkpt lat="56.2850800" lon="44.0153020"><time>2019-01-20T07:27:01.980</time></trkpt><trkpt lat="56.2850250" lon="44.0153130"><time>2019-01-20T07:27:04.980</time></trkpt><trkpt lat="56.2849570" lon="44.0152880"><time>2019-01-20T07:27:07.980</time></trkpt><trkpt lat="56.2849050" lon="44.0152750"><time>2019-01-20T07:27:09.980</time></trkpt><trkpt lat="56.2848470" lon="44.0152980"><time>2019-01-20T07:27:12.980</time></trkpt><trkpt lat="56.2848100" lon="44.0153450"><time>2019-01-20T07:27:14.980</time></trkpt><trkpt lat="56.2847670" lon="44.0153930"><time>2019-01-20T07:27:17.980</time></trkpt><trkpt lat="56.2847150" lon="44.0154530"><time>2019-01-20T07:27:20.980</time></trkpt><trkpt lat="56.2846770" lon="44.0155170"><time>2019-01-20T07:27:23.987</time></trkpt><trkpt lat="56.2846220" lon="44.0155870"><time>2019-01-20T07:27:26.980</time></trkpt><trkpt lat="56.2845700" lon="44.0156500"><time>2019-01-20T07:27:29.987</time></trkpt><trkpt lat="56.2845250" lon="44.0157270"><time>2019-01-20T07:27:32.980</time></trkpt><trkpt lat="56.2844900" lon="44.0158100"><time>2019-01-20T07:27:34.980</time></trkpt><trkpt lat="56.2844600" lon="44.0158920"><time>2019-01-20T07:27:37.980</time></trkpt><trkpt lat="56.2844270" lon="44.0159970"><time>2019-01-20T07:27:40.980</time></trkpt><trkpt lat="56.2844130" lon="44.0160970"><time>2019-01-20T07:27:42.980</time></trkpt><trkpt lat="56.2844220" lon="44.0162000"><time>2019-01-20T07:27:45.980</time></trkpt><trkpt lat="56.2844030" lon="44.0162920"><time>2019-01-20T07:27:47.987</time></trkpt><trkpt lat="56.2843950" lon="44.0163750"><time>2019-01-20T07:27:49.980</time></trkpt><trkpt lat="56.2843750" lon="44.0164700"><time>2019-01-20T07:27:51.980</time></trkpt><trkpt lat="56.2843670" lon="44.0165750"><time>2019-01-20T07:27:54.980</time></trkpt><trkpt lat="56.2843700" lon="44.0166800"><time>2019-01-20T07:27:57.980</time></trkpt><trkpt lat="56.2843330" lon="44.0167680"><time>2019-01-20T07:28:00.980</time></trkpt><trkpt lat="56.2843100" lon="44.0168530"><time>2019-01-20T07:28:04.980</time></trkpt><trkpt lat="56.2842870" lon="44.0169630"><time>2019-01-20T07:28:07.980</time></trkpt><trkpt lat="56.2842670" lon="44.0170400"><time>2019-01-20T07:28:09.980</time></trkpt><trkpt lat="56.2842380" lon="44.0171180"><time>2019-01-20T07:28:12.980</time></trkpt><trkpt lat="56.2841950" lon="44.0171850"><time>2019-01-20T07:28:15.980</time></trkpt><trkpt lat="56.2841280" lon="44.0172530"><time>2019-01-20T07:28:19.980</time></trkpt><trkpt lat="56.2840770" lon="44.0173070"><time>2019-01-20T07:28:22.980</time></trkpt><trkpt lat="56.2840200" lon="44.0173650"><time>2019-01-20T07:28:25.980</time></trkpt><trkpt lat="56.2839680" lon="44.0173830"><time>2019-01-20T07:28:27.980</time></trkpt><trkpt lat="56.2839120" lon="44.0173850"><time>2019-01-20T07:28:29.987</time></trkpt><trkpt lat="56.2838580" lon="44.0173730"><time>2019-01-20T07:28:31.980</time></trkpt><trkpt lat="56.2837930" lon="44.0173770"><time>2019-01-20T07:28:34.980</time></trkpt><trkpt lat="56.2837480" lon="44.0174130"><time>2019-01-20T07:28:36.980</time></trkpt><trkpt lat="56.2836880" lon="44.0174480"><time>2019-01-20T07:28:38.983</time></trkpt><trkpt lat="56.2836300" lon="44.0174880"><time>2019-01-20T07:28:40.980</time></trkpt><trkpt lat="56.2835720" lon="44.0175300"><time>2019-01-20T07:28:43.983</time></trkpt><trkpt lat="56.2835280" lon="44.0175650"><time>2019-01-20T07:28:45.980</time></trkpt><trkpt lat="56.2834780" lon="44.0176220"><time>2019-01-20T07:28:47.987</time></trkpt><trkpt lat="56.2834380" lon="44.0176730"><time>2019-01-20T07:28:49.980</time></trkpt><trkpt lat="56.2833730" lon="44.0177150"><time>2019-01-20T07:28:52.983</time></trkpt><trkpt lat="56.2833220" lon="44.0177470"><time>2019-01-20T07:28:54.980</time></trkpt><trkpt lat="56.2832600" lon="44.0177970"><time>2019-01-20T07:28:57.980</time></trkpt><trkpt lat="56.2832020" lon="44.0178050"><time>2019-01-20T07:29:00.980</time></trkpt><trkpt lat="56.2831530" lon="44.0178120"><time>2019-01-20T07:29:02.983</time></trkpt><trkpt lat="56.2830950" lon="44.0178570"><time>2019-01-20T07:29:04.980</time></trkpt><trkpt lat="56.2830230" lon="44.0179000"><time>2019-01-20T07:29:07.980</time></trkpt><trkpt lat="56.2829650" lon="44.0179300"><time>2019-01-20T07:29:09.980</time></trkpt><trkpt lat="56.2829030" lon="44.0180050"><time>2019-01-20T07:29:11.990</time></trkpt><trkpt lat="56.2828570" lon="44.0180930"><time>2019-01-20T07:29:13.980</time></trkpt><trkpt lat="56.2828070" lon="44.0181620"><time>2019-01-20T07:29:15.980</time></trkpt><trkpt lat="56.2827600" lon="44.0182530"><time>2019-01-20T07:29:17.980</time></trkpt><trkpt lat="56.2827180" lon="44.0183270"><time>2019-01-20T07:29:19.980</time></trkpt><trkpt lat="56.2826750" lon="44.0183630"><time>2019-01-20T07:29:21.980</time></trkpt><trkpt lat="56.2826230" lon="44.0184150"><time>2019-01-20T07:29:23.987</time></trkpt><trkpt lat="56.2825780" lon="44.0184550"><time>2019-01-20T07:29:25.980</time></trkpt><trkpt lat="56.2825270" lon="44.0185000"><time>2019-01-20T07:29:28.980</time></trkpt><trkpt lat="56.2824750" lon="44.0185520"><time>2019-01-20T07:29:31.980</time></trkpt><trkpt lat="56.2824080" lon="44.0185900"><time>2019-01-20T07:29:33.980</time></trkpt><trkpt lat="56.2823570" lon="44.0186070"><time>2019-01-20T07:29:35.987</time></trkpt><trkpt lat="56.2823130" lon="44.0186370"><time>2019-01-20T07:29:37.980</time></trkpt><trkpt lat="56.2822580" lon="44.0186650"><time>2019-01-20T07:29:40.980</time></trkpt><trkpt lat="56.2822130" lon="44.0187020"><time>2019-01-20T07:29:42.980</time></trkpt><trkpt lat="56.2821680" lon="44.0187220"><time>2019-01-20T07:29:44.980</time></trkpt><trkpt lat="56.2821170" lon="44.0187580"><time>2019-01-20T07:29:47.987</time></trkpt><trkpt lat="56.2820580" lon="44.0188150"><time>2019-01-20T07:29:50.983</time></trkpt><trkpt lat="56.2820170" lon="44.0188470"><time>2019-01-20T07:29:52.980</time></trkpt><trkpt lat="56.2819720" lon="44.0188670"><time>2019-01-20T07:29:54.980</time></trkpt><trkpt lat="56.2819130" lon="44.0188720"><time>2019-01-20T07:29:58.980</time></trkpt><trkpt lat="56.2818650" lon="44.0188650"><time>2019-01-20T07:30:00.987</time></trkpt><trkpt lat="56.2818180" lon="44.0188330"><time>2019-01-20T07:30:03.980</time></trkpt><trkpt lat="56.2817670" lon="44.0187980"><time>2019-01-20T07:30:06.980</time></trkpt><trkpt lat="56.2817100" lon="44.0187420"><time>2019-01-20T07:30:09.980</time></trkpt><trkpt lat="56.2816650" lon="44.0186850"><time>2019-01-20T07:30:12.980</time></trkpt><trkpt lat="56.2816350" lon="44.0186220"><time>2019-01-20T07:30:14.980</time></trkpt><trkpt lat="56.2816130" lon="44.0185420"><time>2019-01-20T07:30:17.980</time></trkpt><trkpt lat="56.2815780" lon="44.0184900"><time>2019-01-20T07:30:19.983</time></trkpt><trkpt lat="56.2815170" lon="44.0184300"><time>2019-01-20T07:30:22.983</time></trkpt><trkpt lat="56.2814720" lon="44.0183970"><time>2019-01-20T07:30:24.980</time></trkpt><trkpt lat="56.2814200" lon="44.0183650"><time>2019-01-20T07:30:27.983</time></trkpt><trkpt lat="56.2813780" lon="44.0183180"><time>2019-01-20T07:30:29.990</time></trkpt><trkpt lat="56.2813250" lon="44.0182700"><time>2019-01-20T07:30:32.983</time></trkpt><trkpt lat="56.2812750" lon="44.0182280"><time>2019-01-20T07:30:35.983</time></trkpt><trkpt lat="56.2812250" lon="44.0181650"><time>2019-01-20T07:30:38.980</time></trkpt><trkpt lat="56.2811800" lon="44.0180930"><time>2019-01-20T07:30:41.983</time></trkpt><trkpt lat="56.2811400" lon="44.0180450"><time>2019-01-20T07:30:43.980</time></trkpt><trkpt lat="56.2811000" lon="44.0179550"><time>2019-01-20T07:30:46.980</time></trkpt><trkpt lat="56.2810720" lon="44.0178780"><time>2019-01-20T07:30:48.980</time></trkpt><trkpt lat="56.2810350" lon="44.0177950"><time>2019-01-20T07:30:51.977</time></trkpt><trkpt lat="56.2810150" lon="44.0177200"><time>2019-01-20T07:30:53.983</time></trkpt><trkpt lat="56.2810000" lon="44.0176220"><time>2019-01-20T07:30:56.980</time></trkpt><trkpt lat="56.2809920" lon="44.0175180"><time>2019-01-20T07:30:59.987</time></trkpt><trkpt lat="56.2809800" lon="44.0174050"><time>2019-01-20T07:31:02.980</time></trkpt><trkpt lat="56.2809720" lon="44.0172780"><time>2019-01-20T07:31:05.983</time></trkpt><trkpt lat="56.2809550" lon="44.0171970"><time>2019-01-20T07:31:07.980</time></trkpt><trkpt lat="56.2809350" lon="44.0170820"><time>2019-01-20T07:31:10.980</time></trkpt><trkpt lat="56.2809250" lon="44.0170020"><time>2019-01-20T07:31:12.980</time></trkpt><trkpt lat="56.2809270" lon="44.0168850"><time>2019-01-20T07:31:15.980</time></trkpt><trkpt lat="56.2809250" lon="44.0167820"><time>2019-01-20T07:31:18.980</time></trkpt><trkpt lat="56.2809170" lon="44.0166720"><time>2019-01-20T07:31:21.980</time></trkpt><trkpt lat="56.2808970" lon="44.0165630"><time>2019-01-20T07:31:24.980</time></trkpt><trkpt lat="56.2808800" lon="44.0164580"><time>2019-01-20T07:31:27.980</time></trkpt><trkpt lat="56.2808520" lon="44.0163580"><time>2019-01-20T07:31:30.980</time></trkpt><trkpt lat="56.2808200" lon="44.0162920"><time>2019-01-20T07:31:32.980</time></trkpt><trkpt lat="56.2807850" lon="44.0162270"><time>2019-01-20T07:31:34.987</time></trkpt><trkpt lat="56.2807500" lon="44.0161670"><time>2019-01-20T07:31:37.980</time></trkpt><trkpt lat="56.2807030" lon="44.0161230"><time>2019-01-20T07:31:42.013</time></trkpt><trkpt lat="56.2806600" lon="44.0160630"><time>2019-01-20T07:31:43.980</time></trkpt><trkpt lat="56.2806130" lon="44.0159880"><time>2019-01-20T07:31:46.983</time></trkpt><trkpt lat="56.2805720" lon="44.0159320"><time>2019-01-20T07:31:48.983</time></trkpt><trkpt lat="56.2805320" lon="44.0158630"><time>2019-01-20T07:31:50.980</time></trkpt><trkpt lat="56.2804900" lon="44.0157720"><time>2019-01-20T07:31:53.980</time></trkpt><trkpt lat="56.2804480" lon="44.0156870"><time>2019-01-20T07:31:56.980</time></trkpt><trkpt lat="56.2804030" lon="44.0155930"><time>2019-01-20T07:31:59.983</time></trkpt><trkpt lat="56.2803650" lon="44.0154920"><time>2019-01-20T07:32:02.980</time></trkpt><trkpt lat="56.2803250" lon="44.0154050"><time>2019-01-20T07:32:05.983</time></trkpt><trkpt lat="56.2802880" lon="44.0153580"><time>2019-01-20T07:32:06.980</time></trkpt><trkpt lat="56.2802470" lon="44.0152950"><time>2019-01-20T07:32:08.980</time></trkpt><trkpt lat="56.2802100" lon="44.0152380"><time>2019-01-20T07:32:10.980</time></trkpt><trkpt lat="56.2801700" lon="44.0151880"><time>2019-01-20T07:32:12.980</time></trkpt><trkpt lat="56.2801200" lon="44.0151120"><time>2019-01-20T07:32:15.980</time></trkpt><trkpt lat="56.2800670" lon="44.0150480"><time>2019-01-20T07:32:17.983</time></trkpt><trkpt lat="56.2800280" lon="44.0150030"><time>2019-01-20T07:32:19.980</time></trkpt><trkpt lat="56.2799870" lon="44.0149550"><time>2019-01-20T07:32:21.980</time></trkpt><trkpt lat="56.2799420" lon="44.0148770"><time>2019-01-20T07:32:24.980</time></trkpt><trkpt lat="56.2798970" lon="44.0148170"><time>2019-01-20T07:32:27.980</time></trkpt><trkpt lat="56.2798550" lon="44.0147700"><time>2019-01-20T07:32:29.983</time></trkpt><trkpt lat="56.2797850" lon="44.0147180"><time>2019-01-20T07:32:32.983</time></trkpt><trkpt lat="56.2797200" lon="44.0146620"><time>2019-01-20T07:32:35.983</time></trkpt><trkpt lat="56.2796670" lon="44.0146230"><time>2019-01-20T07:32:37.983</time></trkpt><trkpt lat="56.2796030" lon="44.0145630"><time>2019-01-20T07:32:40.980</time></trkpt><trkpt lat="56.2795600" lon="44.0145130"><time>2019-01-20T07:32:42.983</time></trkpt><trkpt lat="56.2795130" lon="44.0144680"><time>2019-01-20T07:32:44.980</time></trkpt><trkpt lat="56.2794730" lon="44.0144130"><time>2019-01-20T07:32:46.980</time></trkpt><trkpt lat="56.2794300" lon="44.0143820"><time>2019-01-20T07:32:48.980</time></trkpt><trkpt lat="56.2793720" lon="44.0143470"><time>2019-01-20T07:32:50.980</time></trkpt><trkpt lat="56.2793170" lon="44.0143150"><time>2019-01-20T07:32:53.983</time></trkpt><trkpt lat="56.2792480" lon="44.0143350"><time>2019-01-20T07:32:56.980</time></trkpt><trkpt lat="56.2791900" lon="44.0143450"><time>2019-01-20T07:32:58.980</time></trkpt><trkpt lat="56.2791270" lon="44.0143300"><time>2019-01-20T07:33:01.980</time></trkpt><trkpt lat="56.2790770" lon="44.0143220"><time>2019-01-20T07:33:03.980</time></trkpt><trkpt lat="56.2790280" lon="44.0143300"><time>2019-01-20T07:33:06.980</time></trkpt><trkpt lat="56.2789830" lon="44.0143330"><time>2019-01-20T07:33:09.980</time></trkpt><trkpt lat="56.2789370" lon="44.0142600"><time>2019-01-20T07:33:12.980</time></trkpt><trkpt lat="56.2789120" lon="44.0141900"><time>2019-01-20T07:33:14.980</time></trkpt><trkpt lat="56.2788800" lon="44.0140850"><time>2019-01-20T07:33:17.990</time></trkpt><trkpt lat="56.2788700" lon="44.0139930"><time>2019-01-20T07:33:21.980</time></trkpt><trkpt lat="56.2788550" lon="44.0139130"><time>2019-01-20T07:33:23.983</time></trkpt><trkpt lat="56.2788630" lon="44.0138200"><time>2019-01-20T07:33:26.980</time></trkpt><trkpt lat="56.2788730" lon="44.0137180"><time>2019-01-20T07:33:29.983</time></trkpt><trkpt lat="56.2788700" lon="44.0135920"><time>2019-01-20T07:33:32.980</time></trkpt><trkpt lat="56.2788620" lon="44.0135080"><time>2019-01-20T07:33:34.980</time></trkpt><trkpt lat="56.2788580" lon="44.0134250"><time>2019-01-20T07:33:36.980</time></trkpt><trkpt lat="56.2788630" lon="44.0133300"><time>2019-01-20T07:33:38.983</time></trkpt><trkpt lat="56.2788570" lon="44.0132250"><time>2019-01-20T07:33:41.983</time></trkpt><trkpt lat="56.2788630" lon="44.0131250"><time>2019-01-20T07:33:44.980</time></trkpt><trkpt lat="56.2788600" lon="44.0130280"><time>2019-01-20T07:33:47.983</time></trkpt><trkpt lat="56.2788500" lon="44.0129450"><time>2019-01-20T07:33:49.980</time></trkpt><trkpt lat="56.2788370" lon="44.0128250"><time>2019-01-20T07:33:52.980</time></trkpt><trkpt lat="56.2788230" lon="44.0127020"><time>2019-01-20T07:33:55.980</time></trkpt><trkpt lat="56.2788130" lon="44.0126020"><time>2019-01-20T07:33:58.980</time></trkpt><trkpt lat="56.2788170" lon="44.0125120"><time>2019-01-20T07:34:00.980</time></trkpt><trkpt lat="56.2788000" lon="44.0124270"><time>2019-01-20T07:34:02.980</time></trkpt><trkpt lat="56.2787970" lon="44.0123070"><time>2019-01-20T07:34:05.990</time></trkpt><trkpt lat="56.2788070" lon="44.0122180"><time>2019-01-20T07:34:08.980</time></trkpt><trkpt lat="56.2788430" lon="44.0121570"><time>2019-01-20T07:34:11.983</time></trkpt><trkpt lat="56.2788870" lon="44.0121080"><time>2019-01-20T07:34:14.983</time></trkpt><trkpt lat="56.2789350" lon="44.0120670"><time>2019-01-20T07:34:16.980</time></trkpt><trkpt lat="56.2789780" lon="44.0120380"><time>2019-01-20T07:34:18.980</time></trkpt><trkpt lat="56.2790250" lon="44.0120080"><time>2019-01-20T07:34:20.980</time></trkpt><trkpt lat="56.2790700" lon="44.0119800"><time>2019-01-20T07:34:22.980</time></trkpt><trkpt lat="56.2791180" lon="44.0119380"><time>2019-01-20T07:34:24.983</time></trkpt><trkpt lat="56.2791750" lon="44.0119000"><time>2019-01-20T07:34:28.980</time></trkpt><trkpt lat="56.2792170" lon="44.0118530"><time>2019-01-20T07:34:30.980</time></trkpt><trkpt lat="56.2792750" lon="44.0118120"><time>2019-01-20T07:34:34.980</time></trkpt><trkpt lat="56.2793300" lon="44.0117720"><time>2019-01-20T07:34:37.980</time></trkpt><trkpt lat="56.2793830" lon="44.0117400"><time>2019-01-20T07:34:40.980</time></trkpt><trkpt lat="56.2794270" lon="44.0116950"><time>2019-01-20T07:34:43.980</time></trkpt><trkpt lat="56.2794800" lon="44.0116530"><time>2019-01-20T07:34:46.980</time></trkpt><trkpt lat="56.2795400" lon="44.0116230"><time>2019-01-20T07:34:49.980</time></trkpt><trkpt lat="56.2796080" lon="44.0115930"><time>2019-01-20T07:34:52.980</time></trkpt><trkpt lat="56.2796550" lon="44.0115500"><time>2019-01-20T07:34:54.980</time></trkpt><trkpt lat="56.2797020" lon="44.0115020"><time>2019-01-20T07:34:57.980</time></trkpt><trkpt lat="56.2797450" lon="44.0114280"><time>2019-01-20T07:35:00.980</time></trkpt><trkpt lat="56.2797820" lon="44.0113750"><time>2019-01-20T07:35:02.980</time></trkpt><trkpt lat="56.2798230" lon="44.0113270"><time>2019-01-20T07:35:04.980</time></trkpt><trkpt lat="56.2798750" lon="44.0112820"><time>2019-01-20T07:35:05.987</time></trkpt><trkpt lat="56.2799320" lon="44.0112150"><time>2019-01-20T07:35:07.980</time></trkpt><trkpt lat="56.2799800" lon="44.0111350"><time>2019-01-20T07:35:10.980</time></trkpt><trkpt lat="56.2800280" lon="44.0110800"><time>2019-01-20T07:35:13.980</time></trkpt><trkpt lat="56.2800680" lon="44.0109950"><time>2019-01-20T07:35:15.980</time></trkpt><trkpt lat="56.2801300" lon="44.0109150"><time>2019-01-20T07:35:18.503</time></trkpt><trkpt lat="56.2801750" lon="44.0108550"><time>2019-01-20T07:35:19.983</time></trkpt><trkpt lat="56.2802200" lon="44.0107870"><time>2019-01-20T07:35:21.977</time></trkpt><trkpt lat="56.2802650" lon="44.0107180"><time>2019-01-20T07:35:23.987</time></trkpt><trkpt lat="56.2803150" lon="44.0106620"><time>2019-01-20T07:35:25.987</time></trkpt><trkpt lat="56.2803520" lon="44.0106020"><time>2019-01-20T07:35:27.983</time></trkpt><trkpt lat="56.2803900" lon="44.0105330"><time>2019-01-20T07:35:31.037</time></trkpt><trkpt lat="56.2804450" lon="44.0105080"><time>2019-01-20T07:35:33.977</time></trkpt><trkpt lat="56.2804900" lon="44.0104950"><time>2019-01-20T07:35:37.980</time></trkpt><trkpt lat="56.2805030" lon="44.0104850"><time>2019-01-20T07:35:44.230</time></trkpt><trkpt lat="56.2804520" lon="44.0104420"><time>2019-01-20T07:35:55.980</time></trkpt><trkpt lat="56.2804180" lon="44.0103800"><time>2019-01-20T07:35:58.987</time></trkpt><trkpt lat="56.2803730" lon="44.0103480"><time>2019-01-20T07:36:01.980</time></trkpt><trkpt lat="56.2803180" lon="44.0103200"><time>2019-01-20T07:36:04.983</time></trkpt><trkpt lat="56.2802650" lon="44.0102920"><time>2019-01-20T07:36:07.980</time></trkpt><trkpt lat="56.2802180" lon="44.0102820"><time>2019-01-20T07:36:09.980</time></trkpt><trkpt lat="56.2801780" lon="44.0102270"><time>2019-01-20T07:36:12.987</time></trkpt><trkpt lat="56.2801500" lon="44.0101480"><time>2019-01-20T07:36:15.980</time></trkpt><trkpt lat="56.2801200" lon="44.0100650"><time>2019-01-20T07:36:18.987</time></trkpt><trkpt lat="56.2800730" lon="44.0099850"><time>2019-01-20T07:36:21.980</time></trkpt><trkpt lat="56.2800220" lon="44.0099030"><time>2019-01-20T07:36:24.987</time></trkpt><trkpt lat="56.2799830" lon="44.0098530"><time>2019-01-20T07:36:26.990</time></trkpt><trkpt lat="56.2799300" lon="44.0098170"><time>2019-01-20T07:36:29.987</time></trkpt><trkpt lat="56.2798650" lon="44.0097920"><time>2019-01-20T07:36:32.980</time></trkpt><trkpt lat="56.2798020" lon="44.0097830"><time>2019-01-20T07:36:35.987</time></trkpt><trkpt lat="56.2797550" lon="44.0098070"><time>2019-01-20T07:36:37.990</time></trkpt><trkpt lat="56.2797020" lon="44.0098080"><time>2019-01-20T07:36:40.983</time></trkpt><trkpt lat="56.2796570" lon="44.0097970"><time>2019-01-20T07:36:42.980</time></trkpt><trkpt lat="56.2795950" lon="44.0098130"><time>2019-01-20T07:36:45.980</time></trkpt><trkpt lat="56.2795380" lon="44.0098000"><time>2019-01-20T07:36:49.980</time></trkpt><trkpt lat="56.2794800" lon="44.0097820"><time>2019-01-20T07:36:52.987</time></trkpt><trkpt lat="56.2794150" lon="44.0097520"><time>2019-01-20T07:36:54.980</time></trkpt><trkpt lat="56.2793550" lon="44.0097220"><time>2019-01-20T07:36:57.980</time></trkpt><trkpt lat="56.2793030" lon="44.0097000"><time>2019-01-20T07:37:00.983</time></trkpt><trkpt lat="56.2792330" lon="44.0096930"><time>2019-01-20T07:37:03.980</time></trkpt><trkpt lat="56.2791600" lon="44.0096480"><time>2019-01-20T07:37:06.017</time></trkpt><trkpt lat="56.2791150" lon="44.0096370"><time>2019-01-20T07:37:06.980</time></trkpt><trkpt lat="56.2790550" lon="44.0096520"><time>2019-01-20T07:37:08.980</time></trkpt><trkpt lat="56.2790080" lon="44.0096670"><time>2019-01-20T07:37:10.983</time></trkpt><trkpt lat="56.2789450" lon="44.0096730"><time>2019-01-20T07:37:13.980</time></trkpt><trkpt lat="56.2788800" lon="44.0097130"><time>2019-01-20T07:37:16.980</time></trkpt><trkpt lat="56.2788400" lon="44.0097580"><time>2019-01-20T07:37:18.980</time></trkpt><trkpt lat="56.2787930" lon="44.0098100"><time>2019-01-20T07:37:21.980</time></trkpt><trkpt lat="56.2787420" lon="44.0098320"><time>2019-01-20T07:37:23.987</time></trkpt><trkpt lat="56.2787000" lon="44.0098630"><time>2019-01-20T07:37:25.983</time></trkpt><trkpt lat="56.2786570" lon="44.0098870"><time>2019-01-20T07:37:27.980</time></trkpt><trkpt lat="56.2786020" lon="44.0099080"><time>2019-01-20T07:37:29.987</time></trkpt><trkpt lat="56.2785430" lon="44.0099570"><time>2019-01-20T07:37:32.980</time></trkpt><trkpt lat="56.2784950" lon="44.0099850"><time>2019-01-20T07:37:34.980</time></trkpt><trkpt lat="56.2784480" lon="44.0099950"><time>2019-01-20T07:37:37.060</time></trkpt><trkpt lat="56.2784020" lon="44.0100130"><time>2019-01-20T07:37:38.980</time></trkpt><trkpt lat="56.2783570" lon="44.0100530"><time>2019-01-20T07:37:40.983</time></trkpt><trkpt lat="56.2782920" lon="44.0100920"><time>2019-01-20T07:37:43.983</time></trkpt><trkpt lat="56.2782370" lon="44.0100980"><time>2019-01-20T07:37:45.980</time></trkpt><trkpt lat="56.2781730" lon="44.0101320"><time>2019-01-20T07:37:48.980</time></trkpt><trkpt lat="56.2781230" lon="44.0101450"><time>2019-01-20T07:37:50.980</time></trkpt><trkpt lat="56.2780670" lon="44.0101480"><time>2019-01-20T07:37:52.980</time></trkpt><trkpt lat="56.2780070" lon="44.0101550"><time>2019-01-20T07:37:54.980</time></trkpt><trkpt lat="56.2779570" lon="44.0101500"><time>2019-01-20T07:37:56.980</time></trkpt><trkpt lat="56.2779100" lon="44.0101570"><time>2019-01-20T07:37:58.980</time></trkpt><trkpt lat="56.2778600" lon="44.0101520"><time>2019-01-20T07:38:00.983</time></trkpt><trkpt lat="56.2777930" lon="44.0101350"><time>2019-01-20T07:38:02.980</time></trkpt><trkpt lat="56.2777370" lon="44.0101400"><time>2019-01-20T07:38:04.980</time></trkpt><trkpt lat="56.2776750" lon="44.0101700"><time>2019-01-20T07:38:06.980</time></trkpt><trkpt lat="56.2776300" lon="44.0101870"><time>2019-01-20T07:38:08.983</time></trkpt><trkpt lat="56.2775850" lon="44.0102030"><time>2019-01-20T07:38:10.983</time></trkpt><trkpt lat="56.2775380" lon="44.0102180"><time>2019-01-20T07:38:12.980</time></trkpt><trkpt lat="56.2774830" lon="44.0102470"><time>2019-01-20T07:38:14.983</time></trkpt><trkpt lat="56.2774400" lon="44.0103070"><time>2019-01-20T07:38:17.980</time></trkpt><trkpt lat="56.2773880" lon="44.0103880"><time>2019-01-20T07:38:20.980</time></trkpt><trkpt lat="56.2773470" lon="44.0104370"><time>2019-01-20T07:38:22.980</time></trkpt><trkpt lat="56.2773070" lon="44.0104950"><time>2019-01-20T07:38:24.980</time></trkpt><trkpt lat="56.2772530" lon="44.0105650"><time>2019-01-20T07:38:27.980</time></trkpt><trkpt lat="56.2772080" lon="44.0106620"><time>2019-01-20T07:38:30.980</time></trkpt><trkpt lat="56.2771780" lon="44.0107330"><time>2019-01-20T07:38:32.980</time></trkpt><trkpt lat="56.2771550" lon="44.0108200"><time>2019-01-20T07:38:34.980</time></trkpt><trkpt lat="56.2771370" lon="44.0109380"><time>2019-01-20T07:38:37.980</time></trkpt><trkpt lat="56.2771350" lon="44.0110570"><time>2019-01-20T07:38:40.980</time></trkpt><trkpt lat="56.2771200" lon="44.0111680"><time>2019-01-20T07:38:43.980</time></trkpt><trkpt lat="56.2770920" lon="44.0112480"><time>2019-01-20T07:38:46.980</time></trkpt><trkpt lat="56.2770570" lon="44.0113150"><time>2019-01-20T07:38:49.983</time></trkpt><trkpt lat="56.2770070" lon="44.0114200"><time>2019-01-20T07:38:52.980</time></trkpt><trkpt lat="56.2769720" lon="44.0114900"><time>2019-01-20T07:38:54.980</time></trkpt><trkpt lat="56.2769450" lon="44.0115550"><time>2019-01-20T07:38:56.983</time></trkpt><trkpt lat="56.2769180" lon="44.0116400"><time>2019-01-20T07:38:58.983</time></trkpt><trkpt lat="56.2768880" lon="44.0117020"><time>2019-01-20T07:39:00.980</time></trkpt><trkpt lat="56.2768530" lon="44.0117870"><time>2019-01-20T07:39:03.983</time></trkpt><trkpt lat="56.2768030" lon="44.0118650"><time>2019-01-20T07:39:05.983</time></trkpt><trkpt lat="56.2767430" lon="44.0119480"><time>2019-01-20T07:39:08.983</time></trkpt><trkpt lat="56.2767020" lon="44.0120150"><time>2019-01-20T07:39:10.980</time></trkpt><trkpt lat="56.2766500" lon="44.0120470"><time>2019-01-20T07:39:12.980</time></trkpt><trkpt lat="56.2766020" lon="44.0120550"><time>2019-01-20T07:39:14.980</time></trkpt><trkpt lat="56.2765530" lon="44.0120920"><time>2019-01-20T07:39:16.980</time></trkpt><trkpt lat="56.2764980" lon="44.0121050"><time>2019-01-20T07:39:19.983</time></trkpt><trkpt lat="56.2764280" lon="44.0121380"><time>2019-01-20T07:39:22.980</time></trkpt><trkpt lat="56.2763750" lon="44.0121480"><time>2019-01-20T07:39:24.980</time></trkpt><trkpt lat="56.2763250" lon="44.0121730"><time>2019-01-20T07:39:26.980</time></trkpt><trkpt lat="56.2762780" lon="44.0122000"><time>2019-01-20T07:39:28.980</time></trkpt><trkpt lat="56.2762280" lon="44.0122280"><time>2019-01-20T07:39:30.980</time></trkpt><trkpt lat="56.2761770" lon="44.0122700"><time>2019-01-20T07:39:32.980</time></trkpt><trkpt lat="56.2761300" lon="44.0123100"><time>2019-01-20T07:39:34.980</time></trkpt><trkpt lat="56.2760900" lon="44.0123930"><time>2019-01-20T07:39:37.980</time></trkpt><trkpt lat="56.2760180" lon="44.0124420"><time>2019-01-20T07:39:40.980</time></trkpt><trkpt lat="56.2759650" lon="44.0124880"><time>2019-01-20T07:39:42.980</time></trkpt><trkpt lat="56.2759170" lon="44.0125530"><time>2019-01-20T07:39:44.983</time></trkpt><trkpt lat="56.2758620" lon="44.0126070"><time>2019-01-20T07:39:46.983</time></trkpt><trkpt lat="56.2758000" lon="44.0126770"><time>2019-01-20T07:39:49.980</time></trkpt><trkpt lat="56.2757450" lon="44.0127200"><time>2019-01-20T07:39:51.980</time></trkpt><trkpt lat="56.2756950" lon="44.0128020"><time>2019-01-20T07:39:53.983</time></trkpt><trkpt lat="56.2756400" lon="44.0128620"><time>2019-01-20T07:39:56.980</time></trkpt><trkpt lat="56.2755920" lon="44.0129130"><time>2019-01-20T07:39:58.983</time></trkpt><trkpt lat="56.2755400" lon="44.0129600"><time>2019-01-20T07:40:01.980</time></trkpt><trkpt lat="56.2754970" lon="44.0130100"><time>2019-01-20T07:40:03.980</time></trkpt><trkpt lat="56.2754480" lon="44.0130420"><time>2019-01-20T07:40:05.987</time></trkpt><trkpt lat="56.2754030" lon="44.0130830"><time>2019-01-20T07:40:07.980</time></trkpt><trkpt lat="56.2753430" lon="44.0131270"><time>2019-01-20T07:40:09.980</time></trkpt><trkpt lat="56.2752870" lon="44.0131800"><time>2019-01-20T07:40:11.987</time></trkpt><trkpt lat="56.2752400" lon="44.0132070"><time>2019-01-20T07:40:13.980</time></trkpt><trkpt lat="56.2751970" lon="44.0132730"><time>2019-01-20T07:40:15.987</time></trkpt><trkpt lat="56.2751570" lon="44.0133170"><time>2019-01-20T07:40:17.987</time></trkpt><trkpt lat="56.2750870" lon="44.0133780"><time>2019-01-20T07:40:20.980</time></trkpt><trkpt lat="56.2750330" lon="44.0134170"><time>2019-01-20T07:40:22.980</time></trkpt><trkpt lat="56.2749870" lon="44.0134500"><time>2019-01-20T07:40:24.980</time></trkpt><trkpt lat="56.2749320" lon="44.0135030"><time>2019-01-20T07:40:26.983</time></trkpt><trkpt lat="56.2748700" lon="44.0135670"><time>2019-01-20T07:40:28.983</time></trkpt><trkpt lat="56.2748200" lon="44.0135980"><time>2019-01-20T07:40:30.983</time></trkpt><trkpt lat="56.2747570" lon="44.0136220"><time>2019-01-20T07:40:32.980</time></trkpt><trkpt lat="56.2747100" lon="44.0136300"><time>2019-01-20T07:40:34.980</time></trkpt><trkpt lat="56.2746500" lon="44.0136430"><time>2019-01-20T07:40:38.983</time></trkpt><trkpt lat="56.2746050" lon="44.0136720"><time>2019-01-20T07:40:42.983</time></trkpt><trkpt lat="56.2745530" lon="44.0137050"><time>2019-01-20T07:40:46.983</time></trkpt><trkpt lat="56.2745020" lon="44.0137350"><time>2019-01-20T07:40:50.983</time></trkpt><trkpt lat="56.2744450" lon="44.0137100"><time>2019-01-20T07:40:52.983</time></trkpt><trkpt lat="56.2743880" lon="44.0136750"><time>2019-01-20T07:40:54.983</time></trkpt><trkpt lat="56.2743370" lon="44.0136730"><time>2019-01-20T07:40:57.980</time></trkpt><trkpt lat="56.2742820" lon="44.0136480"><time>2019-01-20T07:40:59.987</time></trkpt><trkpt lat="56.2742300" lon="44.0136780"><time>2019-01-20T07:41:01.980</time></trkpt><trkpt lat="56.2741900" lon="44.0137620"><time>2019-01-20T07:41:05.987</time></trkpt><trkpt lat="56.2741680" lon="44.0138680"><time>2019-01-20T07:41:08.983</time></trkpt><trkpt lat="56.2741320" lon="44.0139820"><time>2019-01-20T07:41:11.987</time></trkpt><trkpt lat="56.2741030" lon="44.0140520"><time>2019-01-20T07:41:13.983</time></trkpt><trkpt lat="56.2740600" lon="44.0141350"><time>2019-01-20T07:41:16.980</time></trkpt><trkpt lat="56.2740280" lon="44.0142030"><time>2019-01-20T07:41:19.060</time></trkpt><trkpt lat="56.2739900" lon="44.0142520"><time>2019-01-20T07:41:20.983</time></trkpt><trkpt lat="56.2739530" lon="44.0143300"><time>2019-01-20T07:41:22.983</time></trkpt><trkpt lat="56.2739050" lon="44.0143980"><time>2019-01-20T07:41:25.980</time></trkpt><trkpt lat="56.2738480" lon="44.0144720"><time>2019-01-20T07:41:28.983</time></trkpt><trkpt lat="56.2737920" lon="44.0145230"><time>2019-01-20T07:41:31.980</time></trkpt><trkpt lat="56.2737470" lon="44.0146170"><time>2019-01-20T07:41:34.987</time></trkpt><trkpt lat="56.2737070" lon="44.0146780"><time>2019-01-20T07:41:37.980</time></trkpt><trkpt lat="56.2736730" lon="44.0147750"><time>2019-01-20T07:41:39.983</time></trkpt><trkpt lat="56.2736130" lon="44.0148100"><time>2019-01-20T07:41:42.980</time></trkpt><trkpt lat="56.2735620" lon="44.0147950"><time>2019-01-20T07:41:44.983</time></trkpt><trkpt lat="56.2735000" lon="44.0147520"><time>2019-01-20T07:41:47.990</time></trkpt><trkpt lat="56.2734500" lon="44.0147200"><time>2019-01-20T07:41:49.980</time></trkpt><trkpt lat="56.2733780" lon="44.0146750"><time>2019-01-20T07:41:51.980</time></trkpt><trkpt lat="56.2733200" lon="44.0146000"><time>2019-01-20T07:41:54.983</time></trkpt><trkpt lat="56.2732800" lon="44.0145420"><time>2019-01-20T07:41:56.983</time></trkpt><trkpt lat="56.2732430" lon="44.0144830"><time>2019-01-20T07:41:58.983</time></trkpt><trkpt lat="56.2732030" lon="44.0144200"><time>2019-01-20T07:42:00.980</time></trkpt><trkpt lat="56.2731650" lon="44.0143530"><time>2019-01-20T07:42:02.980</time></trkpt><trkpt lat="56.2731330" lon="44.0142900"><time>2019-01-20T07:42:04.980</time></trkpt><trkpt lat="56.2730900" lon="44.0141970"><time>2019-01-20T07:42:07.980</time></trkpt><trkpt lat="56.2730550" lon="44.0141250"><time>2019-01-20T07:42:09.983</time></trkpt><trkpt lat="56.2730280" lon="44.0140280"><time>2019-01-20T07:42:12.983</time></trkpt><trkpt lat="56.2730120" lon="44.0139430"><time>2019-01-20T07:42:15.980</time></trkpt><trkpt lat="56.2729870" lon="44.0138680"><time>2019-01-20T07:42:17.987</time></trkpt><trkpt lat="56.2729570" lon="44.0137830"><time>2019-01-20T07:42:19.980</time></trkpt><trkpt lat="56.2729330" lon="44.0137020"><time>2019-01-20T07:42:21.980</time></trkpt><trkpt lat="56.2729050" lon="44.0135980"><time>2019-01-20T07:42:24.017</time></trkpt><trkpt lat="56.2728730" lon="44.0135120"><time>2019-01-20T07:42:25.983</time></trkpt><trkpt lat="56.2728450" lon="44.0134380"><time>2019-01-20T07:42:27.990</time></trkpt><trkpt lat="56.2728320" lon="44.0133220"><time>2019-01-20T07:42:30.983</time></trkpt><trkpt lat="56.2728420" lon="44.0132320"><time>2019-01-20T07:42:32.990</time></trkpt><trkpt lat="56.2728600" lon="44.0131550"><time>2019-01-20T07:42:34.977</time></trkpt><trkpt lat="56.2728720" lon="44.0130500"><time>2019-01-20T07:42:37.980</time></trkpt><trkpt lat="56.2728630" lon="44.0129680"><time>2019-01-20T07:42:44.980</time></trkpt><trkpt lat="56.2728670" lon="44.0129570"><time>2019-01-20T07:42:52.570</time></trkpt><trkpt lat="56.2728370" lon="44.0128830"><time>2019-01-20T07:42:57.980</time></trkpt><trkpt lat="56.2728000" lon="44.0127920"><time>2019-01-20T07:43:00.980</time></trkpt><trkpt lat="56.2727750" lon="44.0127170"><time>2019-01-20T07:43:02.983</time></trkpt><trkpt lat="56.2727530" lon="44.0126400"><time>2019-01-20T07:43:04.983</time></trkpt><trkpt lat="56.2727320" lon="44.0125600"><time>2019-01-20T07:43:06.983</time></trkpt><trkpt lat="56.2727050" lon="44.0124900"><time>2019-01-20T07:43:08.983</time></trkpt><trkpt lat="56.2726700" lon="44.0124180"><time>2019-01-20T07:43:10.983</time></trkpt><trkpt lat="56.2726280" lon="44.0123450"><time>2019-01-20T07:43:13.980</time></trkpt><trkpt lat="56.2725980" lon="44.0122700"><time>2019-01-20T07:43:15.980</time></trkpt><trkpt lat="56.2725670" lon="44.0122030"><time>2019-01-20T07:43:17.990</time></trkpt><trkpt lat="56.2725280" lon="44.0121450"><time>2019-01-20T07:43:19.980</time></trkpt><trkpt lat="56.2724970" lon="44.0120430"><time>2019-01-20T07:43:22.983</time></trkpt><trkpt lat="56.2724630" lon="44.0119520"><time>2019-01-20T07:43:25.983</time></trkpt><trkpt lat="56.2724520" lon="44.0118720"><time>2019-01-20T07:43:27.980</time></trkpt><trkpt lat="56.2724370" lon="44.0117950"><time>2019-01-20T07:43:29.987</time></trkpt><trkpt lat="56.2724130" lon="44.0117220"><time>2019-01-20T07:43:31.980</time></trkpt><trkpt lat="56.2723780" lon="44.0116170"><time>2019-01-20T07:43:34.983</time></trkpt><trkpt lat="56.2723420" lon="44.0115570"><time>2019-01-20T07:43:37.983</time></trkpt><trkpt lat="56.2723000" lon="44.0115070"><time>2019-01-20T07:43:40.980</time></trkpt><trkpt lat="56.2722520" lon="44.0114400"><time>2019-01-20T07:43:43.980</time></trkpt><trkpt lat="56.2722020" lon="44.0113680"><time>2019-01-20T07:43:46.980</time></trkpt><trkpt lat="56.2721700" lon="44.0113050"><time>2019-01-20T07:43:48.987</time></trkpt><trkpt lat="56.2721430" lon="44.0112150"><time>2019-01-20T07:43:51.977</time></trkpt><trkpt lat="56.2721120" lon="44.0111380"><time>2019-01-20T07:43:53.983</time></trkpt><trkpt lat="56.2720670" lon="44.0110530"><time>2019-01-20T07:43:56.983</time></trkpt><trkpt lat="56.2720370" lon="44.0109770"><time>2019-01-20T07:43:58.983</time></trkpt><trkpt lat="56.2720080" lon="44.0109000"><time>2019-01-20T07:44:00.980</time></trkpt><trkpt lat="56.2719730" lon="44.0108370"><time>2019-01-20T07:44:02.980</time></trkpt><trkpt lat="56.2719530" lon="44.0107630"><time>2019-01-20T07:44:04.983</time></trkpt><trkpt lat="56.2719370" lon="44.0106750"><time>2019-01-20T07:44:06.980</time></trkpt><trkpt lat="56.2719130" lon="44.0105620"><time>2019-01-20T07:44:09.983</time></trkpt><trkpt lat="56.2718820" lon="44.0104880"><time>2019-01-20T07:44:12.977</time></trkpt><trkpt lat="56.2718420" lon="44.0104220"><time>2019-01-20T07:44:15.980</time></trkpt><trkpt lat="56.2717970" lon="44.0103520"><time>2019-01-20T07:44:18.980</time></trkpt><trkpt lat="56.2717520" lon="44.0102770"><time>2019-01-20T07:44:21.977</time></trkpt><trkpt lat="56.2717200" lon="44.0102120"><time>2019-01-20T07:44:24.980</time></trkpt><trkpt lat="56.2716830" lon="44.0101470"><time>2019-01-20T07:44:26.987</time></trkpt><trkpt lat="56.2716480" lon="44.0100580"><time>2019-01-20T07:44:28.977</time></trkpt><trkpt lat="56.2716200" lon="44.0099920"><time>2019-01-20T07:44:30.980</time></trkpt><trkpt lat="56.2715870" lon="44.0099120"><time>2019-01-20T07:44:32.977</time></trkpt><trkpt lat="56.2715600" lon="44.0098400"><time>2019-01-20T07:44:34.977</time></trkpt><trkpt lat="56.2715320" lon="44.0097720"><time>2019-01-20T07:44:36.980</time></trkpt><trkpt lat="56.2714930" lon="44.0096630"><time>2019-01-20T07:44:39.977</time></trkpt><trkpt lat="56.2714650" lon="44.0095680"><time>2019-01-20T07:44:42.980</time></trkpt><trkpt lat="56.2714280" lon="44.0095000"><time>2019-01-20T07:44:44.977</time></trkpt><trkpt lat="56.2713900" lon="44.0094370"><time>2019-01-20T07:44:46.977</time></trkpt><trkpt lat="56.2713530" lon="44.0093770"><time>2019-01-20T07:44:48.977</time></trkpt><trkpt lat="56.2713170" lon="44.0093180"><time>2019-01-20T07:44:50.977</time></trkpt><trkpt lat="56.2712830" lon="44.0092280"><time>2019-01-20T07:44:53.983</time></trkpt><trkpt lat="56.2712430" lon="44.0091480"><time>2019-01-20T07:44:56.977</time></trkpt><trkpt lat="56.2712030" lon="44.0090650"><time>2019-01-20T07:44:58.977</time></trkpt><trkpt lat="56.2711650" lon="44.0089820"><time>2019-01-20T07:45:00.977</time></trkpt><trkpt lat="56.2711330" lon="44.0088700"><time>2019-01-20T07:45:03.977</time></trkpt><trkpt lat="56.2711180" lon="44.0087730"><time>2019-01-20T07:45:05.983</time></trkpt><trkpt lat="56.2711080" lon="44.0086820"><time>2019-01-20T07:45:07.980</time></trkpt><trkpt lat="56.2710720" lon="44.0085800"><time>2019-01-20T07:45:09.977</time></trkpt><trkpt lat="56.2710500" lon="44.0084930"><time>2019-01-20T07:45:11.987</time></trkpt><trkpt lat="56.2710270" lon="44.0084130"><time>2019-01-20T07:45:13.977</time></trkpt><trkpt lat="56.2709950" lon="44.0083370"><time>2019-01-20T07:45:16.980</time></trkpt><trkpt lat="56.2709680" lon="44.0082230"><time>2019-01-20T07:45:19.977</time></trkpt><trkpt lat="56.2709330" lon="44.0081280"><time>2019-01-20T07:45:22.980</time></trkpt><trkpt lat="56.2709130" lon="44.0080430"><time>2019-01-20T07:45:24.983</time></trkpt><trkpt lat="56.2709050" lon="44.0079470"><time>2019-01-20T07:45:26.983</time></trkpt><trkpt lat="56.2708830" lon="44.0078700"><time>2019-01-20T07:45:28.983</time></trkpt><trkpt lat="56.2708430" lon="44.0078030"><time>2019-01-20T07:45:31.980</time></trkpt><trkpt lat="56.2708050" lon="44.0077330"><time>2019-01-20T07:45:34.980</time></trkpt><trkpt lat="56.2707780" lon="44.0076480"><time>2019-01-20T07:45:37.977</time></trkpt><trkpt lat="56.2707500" lon="44.0075620"><time>2019-01-20T07:45:40.983</time></trkpt><trkpt lat="56.2707170" lon="44.0074930"><time>2019-01-20T07:45:42.983</time></trkpt><trkpt lat="56.2706620" lon="44.0074080"><time>2019-01-20T07:45:44.983</time></trkpt><trkpt lat="56.2706350" lon="44.0072820"><time>2019-01-20T07:45:47.987</time></trkpt><trkpt lat="56.2706000" lon="44.0072080"><time>2019-01-20T07:45:49.977</time></trkpt><trkpt lat="56.2705650" lon="44.0071380"><time>2019-01-20T07:45:51.977</time></trkpt><trkpt lat="56.2705230" lon="44.0070600"><time>2019-01-20T07:45:54.980</time></trkpt><trkpt lat="56.2704920" lon="44.0069900"><time>2019-01-20T07:45:57.983</time></trkpt><trkpt lat="56.2704630" lon="44.0068780"><time>2019-01-20T07:46:01.977</time></trkpt><trkpt lat="56.2704370" lon="44.0068100"><time>2019-01-20T07:46:03.977</time></trkpt><trkpt lat="56.2704070" lon="44.0067470"><time>2019-01-20T07:46:05.983</time></trkpt><trkpt lat="56.2703420" lon="44.0067070"><time>2019-01-20T07:46:08.983</time></trkpt><trkpt lat="56.2702900" lon="44.0067370"><time>2019-01-20T07:46:11.983</time></trkpt><trkpt lat="56.2702670" lon="44.0068150"><time>2019-01-20T07:46:17.983</time></trkpt><trkpt lat="56.2702430" lon="44.0069000"><time>2019-01-20T07:46:22.983</time></trkpt><trkpt lat="56.2702130" lon="44.0069680"><time>2019-01-20T07:46:26.987</time></trkpt><trkpt lat="56.2702000" lon="44.0070730"><time>2019-01-20T07:46:30.983</time></trkpt><trkpt lat="56.2701980" lon="44.0071680"><time>2019-01-20T07:46:32.983</time></trkpt><trkpt lat="56.2701980" lon="44.0072680"><time>2019-01-20T07:46:35.983</time></trkpt><trkpt lat="56.2702100" lon="44.0073600"><time>2019-01-20T07:46:39.977</time></trkpt><trkpt lat="56.2702200" lon="44.0074470"><time>2019-01-20T07:46:43.977</time></trkpt><trkpt lat="56.2702000" lon="44.0075230"><time>2019-01-20T07:46:47.983</time></trkpt><trkpt lat="56.2701630" lon="44.0075800"><time>2019-01-20T07:46:50.983</time></trkpt><trkpt lat="56.2701220" lon="44.0076450"><time>2019-01-20T07:46:53.987</time></trkpt><trkpt lat="56.2700700" lon="44.0077000"><time>2019-01-20T07:46:57.977</time></trkpt><trkpt lat="56.2700300" lon="44.0077430"><time>2019-01-20T07:47:00.983</time></trkpt><trkpt lat="56.2699850" lon="44.0078050"><time>2019-01-20T07:47:04.987</time></trkpt><trkpt lat="56.2699370" lon="44.0078330"><time>2019-01-20T07:47:08.983</time></trkpt><trkpt lat="56.2698820" lon="44.0078650"><time>2019-01-20T07:47:12.983</time></trkpt><trkpt lat="56.2698420" lon="44.0079050"><time>2019-01-20T07:47:15.977</time></trkpt><trkpt lat="56.2698070" lon="44.0079670"><time>2019-01-20T07:47:19.977</time></trkpt><trkpt lat="56.2697670" lon="44.0080320"><time>2019-01-20T07:47:22.983</time></trkpt><trkpt lat="56.2697150" lon="44.0080680"><time>2019-01-20T07:47:27.977</time></trkpt><trkpt lat="56.2696750" lon="44.0081230"><time>2019-01-20T07:47:30.983</time></trkpt><trkpt lat="56.2696250" lon="44.0081770"><time>2019-01-20T07:47:32.987</time></trkpt><trkpt lat="56.2695780" lon="44.0082120"><time>2019-01-20T07:47:34.983</time></trkpt><trkpt lat="56.2695180" lon="44.0082200"><time>2019-01-20T07:47:38.983</time></trkpt><trkpt lat="56.2694730" lon="44.0082000"><time>2019-01-20T07:47:40.983</time></trkpt><trkpt lat="56.2694280" lon="44.0081830"><time>2019-01-20T07:47:42.977</time></trkpt><trkpt lat="56.2693750" lon="44.0081730"><time>2019-01-20T07:47:45.977</time></trkpt><trkpt lat="56.2693280" lon="44.0081720"><time>2019-01-20T07:47:48.983</time></trkpt><trkpt lat="56.2692820" lon="44.0081750"><time>2019-01-20T07:47:51.977</time></trkpt><trkpt lat="56.2692230" lon="44.0081670"><time>2019-01-20T07:47:54.983</time></trkpt><trkpt lat="56.2691700" lon="44.0081580"><time>2019-01-20T07:47:56.983</time></trkpt><trkpt lat="56.2691070" lon="44.0081600"><time>2019-01-20T07:47:59.983</time></trkpt><trkpt lat="56.2690620" lon="44.0081880"><time>2019-01-20T07:48:02.983</time></trkpt><trkpt lat="56.2690120" lon="44.0082180"><time>2019-01-20T07:48:05.983</time></trkpt><trkpt lat="56.2689630" lon="44.0082520"><time>2019-01-20T07:48:08.983</time></trkpt><trkpt lat="56.2689270" lon="44.0083050"><time>2019-01-20T07:48:11.983</time></trkpt><trkpt lat="56.2688770" lon="44.0083820"><time>2019-01-20T07:48:14.980</time></trkpt><trkpt lat="56.2688320" lon="44.0084000"><time>2019-01-20T07:48:17.983</time></trkpt><trkpt lat="56.2687920" lon="44.0084500"><time>2019-01-20T07:48:20.983</time></trkpt><trkpt lat="56.2687450" lon="44.0085170"><time>2019-01-20T07:48:23.983</time></trkpt><trkpt lat="56.2687050" lon="44.0085730"><time>2019-01-20T07:48:26.983</time></trkpt><trkpt lat="56.2686600" lon="44.0086050"><time>2019-01-20T07:48:29.980</time></trkpt><trkpt lat="56.2686220" lon="44.0086700"><time>2019-01-20T07:48:33.013</time></trkpt><trkpt lat="56.2685770" lon="44.0087070"><time>2019-01-20T07:48:35.983</time></trkpt><trkpt lat="56.2685430" lon="44.0087650"><time>2019-01-20T07:48:38.987</time></trkpt><trkpt lat="56.2684970" lon="44.0088180"><time>2019-01-20T07:48:41.983</time></trkpt><trkpt lat="56.2684480" lon="44.0088800"><time>2019-01-20T07:48:44.983</time></trkpt><trkpt lat="56.2684130" lon="44.0089320"><time>2019-01-20T07:48:47.980</time></trkpt><trkpt lat="56.2683750" lon="44.0090080"><time>2019-01-20T07:48:50.977</time></trkpt><trkpt lat="56.2683300" lon="44.0090570"><time>2019-01-20T07:48:53.983</time></trkpt><trkpt lat="56.2682770" lon="44.0090800"><time>2019-01-20T07:48:56.983</time></trkpt><trkpt lat="56.2682180" lon="44.0091200"><time>2019-01-20T07:48:59.983</time></trkpt><trkpt lat="56.2681700" lon="44.0091430"><time>2019-01-20T07:49:01.977</time></trkpt><trkpt lat="56.2681180" lon="44.0091620"><time>2019-01-20T07:49:04.980</time></trkpt><trkpt lat="56.2680570" lon="44.0092070"><time>2019-01-20T07:49:07.977</time></trkpt><trkpt lat="56.2680030" lon="44.0092530"><time>2019-01-20T07:49:10.983</time></trkpt><trkpt lat="56.2679580" lon="44.0092970"><time>2019-01-20T07:49:13.977</time></trkpt><trkpt lat="56.2679050" lon="44.0092850"><time>2019-01-20T07:49:17.983</time></trkpt><trkpt lat="56.2678450" lon="44.0093180"><time>2019-01-20T07:49:20.980</time></trkpt><trkpt lat="56.2677880" lon="44.0093520"><time>2019-01-20T07:49:22.983</time></trkpt><trkpt lat="56.2677370" lon="44.0093770"><time>2019-01-20T07:49:24.983</time></trkpt><trkpt lat="56.2676750" lon="44.0094080"><time>2019-01-20T07:49:27.977</time></trkpt><trkpt lat="56.2676220" lon="44.0094230"><time>2019-01-20T07:49:29.983</time></trkpt><trkpt lat="56.2675600" lon="44.0094420"><time>2019-01-20T07:49:32.983</time></trkpt><trkpt lat="56.2675130" lon="44.0094500"><time>2019-01-20T07:49:35.987</time></trkpt><trkpt lat="56.2674470" lon="44.0094470"><time>2019-01-20T07:49:37.977</time></trkpt><trkpt lat="56.2673920" lon="44.0094300"><time>2019-01-20T07:49:39.977</time></trkpt><trkpt lat="56.2673430" lon="44.0094600"><time>2019-01-20T07:49:41.983</time></trkpt><trkpt lat="56.2672770" lon="44.0095000"><time>2019-01-20T07:49:44.980</time></trkpt><trkpt lat="56.2672320" lon="44.0095170"><time>2019-01-20T07:49:46.987</time></trkpt><trkpt lat="56.2671730" lon="44.0095270"><time>2019-01-20T07:49:48.977</time></trkpt><trkpt lat="56.2671120" lon="44.0095670"><time>2019-01-20T07:49:51.977</time></trkpt><trkpt lat="56.2670600" lon="44.0096050"><time>2019-01-20T07:49:54.983</time></trkpt><trkpt lat="56.2669970" lon="44.0096520"><time>2019-01-20T07:49:58.983</time></trkpt><trkpt lat="56.2669480" lon="44.0096650"><time>2019-01-20T07:50:00.983</time></trkpt><trkpt lat="56.2668880" lon="44.0097030"><time>2019-01-20T07:50:03.977</time></trkpt><trkpt lat="56.2668430" lon="44.0097050"><time>2019-01-20T07:50:05.983</time></trkpt><trkpt lat="56.2667700" lon="44.0097120"><time>2019-01-20T07:50:08.987</time></trkpt><trkpt lat="56.2667180" lon="44.0097280"><time>2019-01-20T07:50:11.980</time></trkpt><trkpt lat="56.2666630" lon="44.0097300"><time>2019-01-20T07:50:13.977</time></trkpt><trkpt lat="56.2666170" lon="44.0097280"><time>2019-01-20T07:50:16.983</time></trkpt><trkpt lat="56.2665600" lon="44.0096750"><time>2019-01-20T07:50:19.977</time></trkpt><trkpt lat="56.2665080" lon="44.0096350"><time>2019-01-20T07:50:22.977</time></trkpt><trkpt lat="56.2664670" lon="44.0095880"><time>2019-01-20T07:50:25.977</time></trkpt><trkpt lat="56.2664080" lon="44.0095450"><time>2019-01-20T07:50:28.980</time></trkpt><trkpt lat="56.2663550" lon="44.0094970"><time>2019-01-20T07:50:31.980</time></trkpt><trkpt lat="56.2663070" lon="44.0094650"><time>2019-01-20T07:50:33.977</time></trkpt><trkpt lat="56.2662530" lon="44.0094430"><time>2019-01-20T07:50:35.983</time></trkpt><trkpt lat="56.2662030" lon="44.0094250"><time>2019-01-20T07:50:37.977</time></trkpt><trkpt lat="56.2661580" lon="44.0094070"><time>2019-01-20T07:50:39.977</time></trkpt><trkpt lat="56.2661030" lon="44.0094020"><time>2019-01-20T07:50:41.983</time></trkpt><trkpt lat="56.2660500" lon="44.0093920"><time>2019-01-20T07:50:43.980</time></trkpt><trkpt lat="56.2660030" lon="44.0093970"><time>2019-01-20T07:50:45.977</time></trkpt><trkpt lat="56.2659530" lon="44.0094050"><time>2019-01-20T07:50:48.983</time></trkpt><trkpt lat="56.2659100" lon="44.0094430"><time>2019-01-20T07:50:51.977</time></trkpt><trkpt lat="56.2658520" lon="44.0094830"><time>2019-01-20T07:50:54.983</time></trkpt><trkpt lat="56.2658050" lon="44.0095220"><time>2019-01-20T07:50:56.983</time></trkpt><trkpt lat="56.2657650" lon="44.0095620"><time>2019-01-20T07:50:58.977</time></trkpt><trkpt lat="56.2657250" lon="44.0096200"><time>2019-01-20T07:51:01.977</time></trkpt><trkpt lat="56.2656700" lon="44.0096650"><time>2019-01-20T07:51:04.980</time></trkpt><trkpt lat="56.2656080" lon="44.0096880"><time>2019-01-20T07:51:07.977</time></trkpt><trkpt lat="56.2655630" lon="44.0096980"><time>2019-01-20T07:51:10.983</time></trkpt><trkpt lat="56.2655120" lon="44.0097350"><time>2019-01-20T07:51:14.983</time></trkpt><trkpt lat="56.2654470" lon="44.0097320"><time>2019-01-20T07:51:17.983</time></trkpt><trkpt lat="56.2653870" lon="44.0097170"><time>2019-01-20T07:51:20.983</time></trkpt><trkpt lat="56.2653420" lon="44.0096850"><time>2019-01-20T07:51:23.983</time></trkpt><trkpt lat="56.2652970" lon="44.0096500"><time>2019-01-20T07:51:25.980</time></trkpt><trkpt lat="56.2652550" lon="44.0097330"><time>2019-01-20T07:51:27.987</time></trkpt><trkpt lat="56.2651930" lon="44.0097950"><time>2019-01-20T07:51:30.983</time></trkpt><trkpt lat="56.2651470" lon="44.0098080"><time>2019-01-20T07:51:33.010</time></trkpt><trkpt lat="56.2651100" lon="44.0097330"><time>2019-01-20T07:51:37.090</time></trkpt><trkpt lat="56.2650680" lon="44.0096420"><time>2019-01-20T07:51:39.977</time></trkpt><trkpt lat="56.2650220" lon="44.0095670"><time>2019-01-20T07:51:41.987</time></trkpt><trkpt lat="56.2649800" lon="44.0095120"><time>2019-01-20T07:51:44.047</time></trkpt><trkpt lat="56.2649220" lon="44.0094980"><time>2019-01-20T07:51:48.007</time></trkpt><trkpt lat="56.2648780" lon="44.0095530"><time>2019-01-20T07:51:53.993</time></trkpt><trkpt lat="56.2648450" lon="44.0096200"><time>2019-01-20T07:51:59.180</time></trkpt><trkpt lat="56.2648070" lon="44.0096430"><time>2019-01-20T07:52:04.187</time></trkpt><trkpt lat="56.2648020" lon="44.0096430"><time>2019-01-20T07:52:05.010</time></trkpt><trkpt lat="56.2648000" lon="44.0097450"><time>2019-01-20T07:52:11.987</time></trkpt><trkpt lat="56.2647950" lon="44.0098350"><time>2019-01-20T07:52:15.003</time></trkpt><trkpt lat="56.2648030" lon="44.0099250"><time>2019-01-20T07:52:17</time></trkpt><trkpt lat="56.2648170" lon="44.0100100"><time>2019-01-20T07:52:18.987</time></trkpt><trkpt lat="56.2648370" lon="44.0101230"><time>2019-01-20T07:52:21.987</time></trkpt><trkpt lat="56.2648570" lon="44.0102230"><time>2019-01-20T07:52:23.983</time></trkpt><trkpt lat="56.2648700" lon="44.0103280"><time>2019-01-20T07:52:25.977</time></trkpt><trkpt lat="56.2648950" lon="44.0104150"><time>2019-01-20T07:52:28.977</time></trkpt><trkpt lat="56.2649180" lon="44.0104850"><time>2019-01-20T07:52:30.983</time></trkpt><trkpt lat="56.2649430" lon="44.0105870"><time>2019-01-20T07:52:33.977</time></trkpt><trkpt lat="56.2649650" lon="44.0106770"><time>2019-01-20T07:52:35.990</time></trkpt><trkpt lat="56.2649920" lon="44.0107450"><time>2019-01-20T07:52:37.977</time></trkpt><trkpt lat="56.2650220" lon="44.0108270"><time>2019-01-20T07:52:40.977</time></trkpt><trkpt lat="56.2650570" lon="44.0109000"><time>2019-01-20T07:52:44.977</time></trkpt><trkpt lat="56.2651020" lon="44.0109480"><time>2019-01-20T07:52:48.977</time></trkpt><trkpt lat="56.2651380" lon="44.0110000"><time>2019-01-20T07:52:50.977</time></trkpt><trkpt lat="56.2651850" lon="44.0110850"><time>2019-01-20T07:52:53.983</time></trkpt><trkpt lat="56.2652350" lon="44.0111400"><time>2019-01-20T07:52:55.977</time></trkpt><trkpt lat="56.2652730" lon="44.0111850"><time>2019-01-20T07:52:57.977</time></trkpt><trkpt lat="56.2653230" lon="44.0112370"><time>2019-01-20T07:52:59.983</time></trkpt><trkpt lat="56.2653700" lon="44.0112850"><time>2019-01-20T07:53:01.977</time></trkpt><trkpt lat="56.2654220" lon="44.0113380"><time>2019-01-20T07:53:04.977</time></trkpt><trkpt lat="56.2654770" lon="44.0114120"><time>2019-01-20T07:53:07.977</time></trkpt><trkpt lat="56.2655270" lon="44.0114720"><time>2019-01-20T07:53:10.977</time></trkpt><trkpt lat="56.2655670" lon="44.0115230"><time>2019-01-20T07:53:12.977</time></trkpt><trkpt lat="56.2656270" lon="44.0115670"><time>2019-01-20T07:53:15.980</time></trkpt><trkpt lat="56.2656870" lon="44.0116000"><time>2019-01-20T07:53:18.977</time></trkpt><trkpt lat="56.2657370" lon="44.0116350"><time>2019-01-20T07:53:20.980</time></trkpt><trkpt lat="56.2657880" lon="44.0116730"><time>2019-01-20T07:53:23.980</time></trkpt><trkpt lat="56.2658320" lon="44.0116980"><time>2019-01-20T07:53:25.980</time></trkpt><trkpt lat="56.2658820" lon="44.0117370"><time>2019-01-20T07:53:27.977</time></trkpt><trkpt lat="56.2659270" lon="44.0117630"><time>2019-01-20T07:53:29.983</time></trkpt><trkpt lat="56.2659750" lon="44.0118030"><time>2019-01-20T07:53:31.977</time></trkpt><trkpt lat="56.2660220" lon="44.0118480"><time>2019-01-20T07:53:33.977</time></trkpt><trkpt lat="56.2660630" lon="44.0119080"><time>2019-01-20T07:53:35.983</time></trkpt><trkpt lat="56.2661070" lon="44.0119680"><time>2019-01-20T07:53:37.977</time></trkpt><trkpt lat="56.2661380" lon="44.0120370"><time>2019-01-20T07:53:39.977</time></trkpt><trkpt lat="56.2661780" lon="44.0121150"><time>2019-01-20T07:53:42.977</time></trkpt><trkpt lat="56.2662230" lon="44.0121880"><time>2019-01-20T07:53:45.977</time></trkpt><trkpt lat="56.2662630" lon="44.0122770"><time>2019-01-20T07:53:48.977</time></trkpt><trkpt lat="56.2662830" lon="44.0123530"><time>2019-01-20T07:53:50.977</time></trkpt><trkpt lat="56.2663020" lon="44.0124630"><time>2019-01-20T07:53:52.980</time></trkpt><trkpt lat="56.2663300" lon="44.0125700"><time>2019-01-20T07:53:55.980</time></trkpt><trkpt lat="56.2663620" lon="44.0126650"><time>2019-01-20T07:53:57.977</time></trkpt><trkpt lat="56.2663930" lon="44.0127380"><time>2019-01-20T07:53:59.983</time></trkpt><trkpt lat="56.2664330" lon="44.0127800"><time>2019-01-20T07:54:01.977</time></trkpt><trkpt lat="56.2664870" lon="44.0128200"><time>2019-01-20T07:54:05.983</time></trkpt><trkpt lat="56.2665520" lon="44.0128670"><time>2019-01-20T07:54:08.980</time></trkpt><trkpt lat="56.2665920" lon="44.0129070"><time>2019-01-20T07:54:10.977</time></trkpt><trkpt lat="56.2666450" lon="44.0129330"><time>2019-01-20T07:54:13.980</time></trkpt><trkpt lat="56.2666970" lon="44.0129730"><time>2019-01-20T07:54:15.977</time></trkpt><trkpt lat="56.2667450" lon="44.0130150"><time>2019-01-20T07:54:18.013</time></trkpt><trkpt lat="56.2667830" lon="44.0130580"><time>2019-01-20T07:54:19.977</time></trkpt><trkpt lat="56.2668230" lon="44.0131130"><time>2019-01-20T07:54:21.977</time></trkpt><trkpt lat="56.2668670" lon="44.0131950"><time>2019-01-20T07:54:24.980</time></trkpt><trkpt lat="56.2669000" lon="44.0132780"><time>2019-01-20T07:54:27.977</time></trkpt><trkpt lat="56.2669330" lon="44.0133950"><time>2019-01-20T07:54:30.977</time></trkpt><trkpt lat="56.2669800" lon="44.0134900"><time>2019-01-20T07:54:33.977</time></trkpt><trkpt lat="56.2670100" lon="44.0135530"><time>2019-01-20T07:54:35.990</time></trkpt><trkpt lat="56.2670420" lon="44.0136200"><time>2019-01-20T07:54:38.977</time></trkpt><trkpt lat="56.2671030" lon="44.0136350"><time>2019-01-20T07:54:41.980</time></trkpt><trkpt lat="56.2671580" lon="44.0136900"><time>2019-01-20T07:54:44.977</time></trkpt><trkpt lat="56.2671920" lon="44.0137780"><time>2019-01-20T07:54:46.977</time></trkpt><trkpt lat="56.2672300" lon="44.0138530"><time>2019-01-20T07:54:48.977</time></trkpt><trkpt lat="56.2672580" lon="44.0139180"><time>2019-01-20T07:54:49.977</time></trkpt><trkpt lat="56.2673020" lon="44.0139770"><time>2019-01-20T07:54:51.980</time></trkpt><trkpt lat="56.2673500" lon="44.0140420"><time>2019-01-20T07:54:54.977</time></trkpt><trkpt lat="56.2673970" lon="44.0140650"><time>2019-01-20T07:54:56.980</time></trkpt><trkpt lat="56.2674470" lon="44.0141220"><time>2019-01-20T07:54:58.977</time></trkpt><trkpt lat="56.2675000" lon="44.0142020"><time>2019-01-20T07:55:01.980</time></trkpt><trkpt lat="56.2675420" lon="44.0142680"><time>2019-01-20T07:55:03.977</time></trkpt><trkpt lat="56.2675950" lon="44.0143320"><time>2019-01-20T07:55:06.977</time></trkpt><trkpt lat="56.2676370" lon="44.0143670"><time>2019-01-20T07:55:08.980</time></trkpt><trkpt lat="56.2676680" lon="44.0144330"><time>2019-01-20T07:55:10.977</time></trkpt><trkpt lat="56.2677180" lon="44.0145150"><time>2019-01-20T07:55:13.980</time></trkpt><trkpt lat="56.2677580" lon="44.0145880"><time>2019-01-20T07:55:16.977</time></trkpt><trkpt lat="56.2677930" lon="44.0146500"><time>2019-01-20T07:55:18.977</time></trkpt><trkpt lat="56.2678320" lon="44.0147480"><time>2019-01-20T07:55:20.980</time></trkpt><trkpt lat="56.2678650" lon="44.0148550"><time>2019-01-20T07:55:23.983</time></trkpt><trkpt lat="56.2678730" lon="44.0149620"><time>2019-01-20T07:55:26.980</time></trkpt><trkpt lat="56.2678600" lon="44.0150750"><time>2019-01-20T07:55:29.980</time></trkpt><trkpt lat="56.2678700" lon="44.0151630"><time>2019-01-20T07:55:32.980</time></trkpt><trkpt lat="56.2678830" lon="44.0152570"><time>2019-01-20T07:55:34.980</time></trkpt><trkpt lat="56.2678950" lon="44.0153400"><time>2019-01-20T07:55:36.980</time></trkpt><trkpt lat="56.2679100" lon="44.0154350"><time>2019-01-20T07:55:40.977</time></trkpt><trkpt lat="56.2678930" lon="44.0155130"><time>2019-01-20T07:55:44.977</time></trkpt><trkpt lat="56.2678770" lon="44.0156330"><time>2019-01-20T07:55:47.983</time></trkpt><trkpt lat="56.2678600" lon="44.0157150"><time>2019-01-20T07:55:48.977</time></trkpt><trkpt lat="56.2678380" lon="44.0158320"><time>2019-01-20T07:55:50.977</time></trkpt><trkpt lat="56.2678220" lon="44.0159680"><time>2019-01-20T07:55:53.980</time></trkpt><trkpt lat="56.2677880" lon="44.0160700"><time>2019-01-20T07:55:56.977</time></trkpt><trkpt lat="56.2677850" lon="44.0161830"><time>2019-01-20T07:55:58.980</time></trkpt><trkpt lat="56.2677870" lon="44.0162670"><time>2019-01-20T07:55:59.980</time></trkpt><trkpt lat="56.2678150" lon="44.0163350"><time>2019-01-20T07:56:01.980</time></trkpt><trkpt lat="56.2678400" lon="44.0164170"><time>2019-01-20T07:56:03.977</time></trkpt><trkpt lat="56.2678680" lon="44.0164800"><time>2019-01-20T07:56:06.980</time></trkpt><trkpt lat="56.2679130" lon="44.0165320"><time>2019-01-20T07:56:09.980</time></trkpt><trkpt lat="56.2679800" lon="44.0165900"><time>2019-01-20T07:56:12.977</time></trkpt><trkpt lat="56.2680300" lon="44.0166600"><time>2019-01-20T07:56:15.977</time></trkpt><trkpt lat="56.2680500" lon="44.0167350"><time>2019-01-20T07:56:17.980</time></trkpt><trkpt lat="56.2680900" lon="44.0168030"><time>2019-01-20T07:56:20.977</time></trkpt><trkpt lat="56.2681170" lon="44.0168750"><time>2019-01-20T07:56:23.980</time></trkpt><trkpt lat="56.2681630" lon="44.0168980"><time>2019-01-20T07:56:25.977</time></trkpt><trkpt lat="56.2682080" lon="44.0169380"><time>2019-01-20T07:56:27.977</time></trkpt><trkpt lat="56.2682600" lon="44.0169600"><time>2019-01-20T07:56:30.977</time></trkpt><trkpt lat="56.2683030" lon="44.0169880"><time>2019-01-20T07:56:32.980</time></trkpt><trkpt lat="56.2683420" lon="44.0170330"><time>2019-01-20T07:56:35.983</time></trkpt><trkpt lat="56.2683830" lon="44.0170720"><time>2019-01-20T07:56:37.980</time></trkpt><trkpt lat="56.2684270" lon="44.0171120"><time>2019-01-20T07:56:39.980</time></trkpt><trkpt lat="56.2684680" lon="44.0171670"><time>2019-01-20T07:56:41.983</time></trkpt><trkpt lat="56.2685180" lon="44.0172200"><time>2019-01-20T07:56:44.977</time></trkpt><trkpt lat="56.2685650" lon="44.0172530"><time>2019-01-20T07:56:46.977</time></trkpt><trkpt lat="56.2686120" lon="44.0173130"><time>2019-01-20T07:56:49.977</time></trkpt><trkpt lat="56.2686580" lon="44.0173550"><time>2019-01-20T07:56:51.977</time></trkpt><trkpt lat="56.2687080" lon="44.0174230"><time>2019-01-20T07:56:54.977</time></trkpt><trkpt lat="56.2687630" lon="44.0174930"><time>2019-01-20T07:56:56.980</time></trkpt><trkpt lat="56.2688080" lon="44.0175380"><time>2019-01-20T07:56:58.980</time></trkpt><trkpt lat="56.2688680" lon="44.0176180"><time>2019-01-20T07:57:01.980</time></trkpt><trkpt lat="56.2689270" lon="44.0176730"><time>2019-01-20T07:57:03.977</time></trkpt><trkpt lat="56.2689720" lon="44.0177070"><time>2019-01-20T07:57:05.980</time></trkpt><trkpt lat="56.2690200" lon="44.0177680"><time>2019-01-20T07:57:07.977</time></trkpt><trkpt lat="56.2690600" lon="44.0178080"><time>2019-01-20T07:57:09.977</time></trkpt><trkpt lat="56.2691050" lon="44.0178630"><time>2019-01-20T07:57:11.980</time></trkpt><trkpt lat="56.2691550" lon="44.0179330"><time>2019-01-20T07:57:13.977</time></trkpt><trkpt lat="56.2692170" lon="44.0179830"><time>2019-01-20T07:57:16.987</time></trkpt><trkpt lat="56.2692580" lon="44.0180330"><time>2019-01-20T07:57:18.977</time></trkpt><trkpt lat="56.2692950" lon="44.0181080"><time>2019-01-20T07:57:20.977</time></trkpt><trkpt lat="56.2693470" lon="44.0181720"><time>2019-01-20T07:57:22.977</time></trkpt><trkpt lat="56.2693920" lon="44.0182250"><time>2019-01-20T07:57:24.977</time></trkpt><trkpt lat="56.2694300" lon="44.0182770"><time>2019-01-20T07:57:26.977</time></trkpt><trkpt lat="56.2694750" lon="44.0183320"><time>2019-01-20T07:57:28.977</time></trkpt><trkpt lat="56.2695280" lon="44.0184250"><time>2019-01-20T07:57:31.977</time></trkpt><trkpt lat="56.2695670" lon="44.0184900"><time>2019-01-20T07:57:33.977</time></trkpt><trkpt lat="56.2696130" lon="44.0185720"><time>2019-01-20T07:57:36.980</time></trkpt><trkpt lat="56.2696600" lon="44.0186480"><time>2019-01-20T07:57:38.977</time></trkpt><trkpt lat="56.2697150" lon="44.0187220"><time>2019-01-20T07:57:41.980</time></trkpt><trkpt lat="56.2697750" lon="44.0188000"><time>2019-01-20T07:57:44.977</time></trkpt><trkpt lat="56.2698200" lon="44.0188530"><time>2019-01-20T07:57:46.977</time></trkpt><trkpt lat="56.2698670" lon="44.0189230"><time>2019-01-20T07:57:49.977</time></trkpt><trkpt lat="56.2699120" lon="44.0189720"><time>2019-01-20T07:57:51.977</time></trkpt><trkpt lat="56.2699580" lon="44.0190130"><time>2019-01-20T07:57:54.977</time></trkpt><trkpt lat="56.2700000" lon="44.0190880"><time>2019-01-20T07:57:56.977</time></trkpt><trkpt lat="56.2700380" lon="44.0191400"><time>2019-01-20T07:57:58.980</time></trkpt><trkpt lat="56.2700770" lon="44.0191920"><time>2019-01-20T07:58:01.043</time></trkpt><trkpt lat="56.2701320" lon="44.0192650"><time>2019-01-20T07:58:03.997</time></trkpt><trkpt lat="56.2701780" lon="44.0193170"><time>2019-01-20T07:58:05.997</time></trkpt><trkpt lat="56.2702300" lon="44.0193680"><time>2019-01-20T07:58:09</time></trkpt><trkpt lat="56.2702770" lon="44.0194180"><time>2019-01-20T07:58:11.993</time></trkpt><trkpt lat="56.2703300" lon="44.0194450"><time>2019-01-20T07:58:15</time></trkpt><trkpt lat="56.2703700" lon="44.0194950"><time>2019-01-20T07:58:16.993</time></trkpt><trkpt lat="56.2704170" lon="44.0195850"><time>2019-01-20T07:58:19.997</time></trkpt><trkpt lat="56.2704700" lon="44.0196450"><time>2019-01-20T07:58:22.977</time></trkpt><trkpt lat="56.2705220" lon="44.0197150"><time>2019-01-20T07:58:25.977</time></trkpt><trkpt lat="56.2705630" lon="44.0197750"><time>2019-01-20T07:58:27.977</time></trkpt><trkpt lat="56.2706000" lon="44.0198580"><time>2019-01-20T07:58:29.987</time></trkpt><trkpt lat="56.2706450" lon="44.0199430"><time>2019-01-20T07:58:31.980</time></trkpt><trkpt lat="56.2706720" lon="44.0200150"><time>2019-01-20T07:58:33.977</time></trkpt><trkpt lat="56.2707170" lon="44.0201020"><time>2019-01-20T07:58:36.977</time></trkpt><trkpt lat="56.2707550" lon="44.0201500"><time>2019-01-20T07:58:38.977</time></trkpt><trkpt lat="56.2707920" lon="44.0202030"><time>2019-01-20T07:58:40.980</time></trkpt><trkpt lat="56.2708270" lon="44.0202700"><time>2019-01-20T07:58:42.977</time></trkpt><trkpt lat="56.2708600" lon="44.0203420"><time>2019-01-20T07:58:44.977</time></trkpt><trkpt lat="56.2708950" lon="44.0204420"><time>2019-01-20T07:58:47.980</time></trkpt><trkpt lat="56.2709350" lon="44.0205170"><time>2019-01-20T07:58:50.980</time></trkpt><trkpt lat="56.2709730" lon="44.0205750"><time>2019-01-20T07:58:52.980</time></trkpt><trkpt lat="56.2710080" lon="44.0206620"><time>2019-01-20T07:58:55.980</time></trkpt><trkpt lat="56.2710400" lon="44.0207350"><time>2019-01-20T07:58:57.977</time></trkpt><trkpt lat="56.2710820" lon="44.0208200"><time>2019-01-20T07:58:59.980</time></trkpt><trkpt lat="56.2711120" lon="44.0208920"><time>2019-01-20T07:59:01.977</time></trkpt><trkpt lat="56.2711520" lon="44.0209580"><time>2019-01-20T07:59:04.977</time></trkpt><trkpt lat="56.2711950" lon="44.0209800"><time>2019-01-20T07:59:06.977</time></trkpt><trkpt lat="56.2712450" lon="44.0210120"><time>2019-01-20T07:59:09.977</time></trkpt><trkpt lat="56.2713080" lon="44.0210420"><time>2019-01-20T07:59:12.980</time></trkpt><trkpt lat="56.2713550" lon="44.0210520"><time>2019-01-20T07:59:14.977</time></trkpt><trkpt lat="56.2714070" lon="44.0210680"><time>2019-01-20T07:59:16.977</time></trkpt><trkpt lat="56.2714550" lon="44.0210670"><time>2019-01-20T07:59:19.977</time></trkpt><trkpt lat="56.2715180" lon="44.0210450"><time>2019-01-20T07:59:22.980</time></trkpt><trkpt lat="56.2715770" lon="44.0210220"><time>2019-01-20T07:59:25.977</time></trkpt><trkpt lat="56.2716420" lon="44.0210000"><time>2019-01-20T07:59:28.980</time></trkpt><trkpt lat="56.2716970" lon="44.0209900"><time>2019-01-20T07:59:30.977</time></trkpt><trkpt lat="56.2717420" lon="44.0209830"><time>2019-01-20T07:59:32.980</time></trkpt><trkpt lat="56.2718020" lon="44.0209770"><time>2019-01-20T07:59:34.977</time></trkpt><trkpt lat="56.2718600" lon="44.0209850"><time>2019-01-20T07:59:36.980</time></trkpt><trkpt lat="56.2719080" lon="44.0209830"><time>2019-01-20T07:59:38.980</time></trkpt><trkpt lat="56.2719620" lon="44.0210030"><time>2019-01-20T07:59:40.977</time></trkpt><trkpt lat="56.2720220" lon="44.0210070"><time>2019-01-20T07:59:43.987</time></trkpt><trkpt lat="56.2720720" lon="44.0209930"><time>2019-01-20T07:59:45.977</time></trkpt><trkpt lat="56.2721300" lon="44.0210020"><time>2019-01-20T07:59:47.983</time></trkpt><trkpt lat="56.2721950" lon="44.0210620"><time>2019-01-20T07:59:50.977</time></trkpt><trkpt lat="56.2722450" lon="44.0211070"><time>2019-01-20T07:59:52.977</time></trkpt><trkpt lat="56.2723000" lon="44.0211430"><time>2019-01-20T07:59:54.977</time></trkpt><trkpt lat="56.2723530" lon="44.0211780"><time>2019-01-20T07:59:56.977</time></trkpt><trkpt lat="56.2724030" lon="44.0212280"><time>2019-01-20T07:59:58.980</time></trkpt><trkpt lat="56.2724550" lon="44.0212650"><time>2019-01-20T08:00:00.977</time></trkpt><trkpt lat="56.2725070" lon="44.0213250"><time>2019-01-20T08:00:02.977</time></trkpt><trkpt lat="56.2725470" lon="44.0213850"><time>2019-01-20T08:00:04.977</time></trkpt><trkpt lat="56.2725800" lon="44.0214500"><time>2019-01-20T08:00:06.980</time></trkpt><trkpt lat="56.2726080" lon="44.0215130"><time>2019-01-20T08:00:08.983</time></trkpt><trkpt lat="56.2726450" lon="44.0215980"><time>2019-01-20T08:00:11.980</time></trkpt><trkpt lat="56.2726770" lon="44.0216650"><time>2019-01-20T08:00:13.980</time></trkpt><trkpt lat="56.2727050" lon="44.0217630"><time>2019-01-20T08:00:16.980</time></trkpt><trkpt lat="56.2727270" lon="44.0218480"><time>2019-01-20T08:00:19.977</time></trkpt><trkpt lat="56.2727500" lon="44.0219570"><time>2019-01-20T08:00:22.980</time></trkpt><trkpt lat="56.2727650" lon="44.0220370"><time>2019-01-20T08:00:24.977</time></trkpt><trkpt lat="56.2727770" lon="44.0221170"><time>2019-01-20T08:00:26.983</time></trkpt><trkpt lat="56.2727920" lon="44.0222170"><time>2019-01-20T08:00:29.987</time></trkpt><trkpt lat="56.2728180" lon="44.0223130"><time>2019-01-20T08:00:32.980</time></trkpt><trkpt lat="56.2728420" lon="44.0224030"><time>2019-01-20T08:00:34.980</time></trkpt><trkpt lat="56.2728670" lon="44.0224830"><time>2019-01-20T08:00:36.983</time></trkpt><trkpt lat="56.2728830" lon="44.0225820"><time>2019-01-20T08:00:38.977</time></trkpt><trkpt lat="56.2729120" lon="44.0226770"><time>2019-01-20T08:00:41.987</time></trkpt><trkpt lat="56.2729380" lon="44.0227930"><time>2019-01-20T08:00:44.977</time></trkpt><trkpt lat="56.2729500" lon="44.0228780"><time>2019-01-20T08:00:46.977</time></trkpt><trkpt lat="56.2729700" lon="44.0229630"><time>2019-01-20T08:00:48.977</time></trkpt><trkpt lat="56.2730030" lon="44.0230730"><time>2019-01-20T08:00:51.977</time></trkpt><trkpt lat="56.2730230" lon="44.0231500"><time>2019-01-20T08:00:53.983</time></trkpt><trkpt lat="56.2730420" lon="44.0232430"><time>2019-01-20T08:00:55.980</time></trkpt><trkpt lat="56.2730650" lon="44.0233220"><time>2019-01-20T08:00:57.980</time></trkpt><trkpt lat="56.2730920" lon="44.0234170"><time>2019-01-20T08:00:59.980</time></trkpt><trkpt lat="56.2731200" lon="44.0235400"><time>2019-01-20T08:01:02.977</time></trkpt><trkpt lat="56.2731500" lon="44.0236150"><time>2019-01-20T08:01:04.983</time></trkpt><trkpt lat="56.2731750" lon="44.0237020"><time>2019-01-20T08:01:06.977</time></trkpt><trkpt lat="56.2731900" lon="44.0237900"><time>2019-01-20T08:01:08.977</time></trkpt><trkpt lat="56.2732130" lon="44.0238750"><time>2019-01-20T08:01:10.980</time></trkpt><trkpt lat="56.2732350" lon="44.0239580"><time>2019-01-20T08:01:12.977</time></trkpt><trkpt lat="56.2732520" lon="44.0240600"><time>2019-01-20T08:01:14.980</time></trkpt><trkpt lat="56.2732670" lon="44.0241550"><time>2019-01-20T08:01:16.980</time></trkpt><trkpt lat="56.2732850" lon="44.0242600"><time>2019-01-20T08:01:18.980</time></trkpt><trkpt lat="56.2733000" lon="44.0243680"><time>2019-01-20T08:01:20.977</time></trkpt><trkpt lat="56.2733180" lon="44.0244550"><time>2019-01-20T08:01:22.977</time></trkpt><trkpt lat="56.2733370" lon="44.0245600"><time>2019-01-20T08:01:24.977</time></trkpt><trkpt lat="56.2733630" lon="44.0246380"><time>2019-01-20T08:01:26.977</time></trkpt><trkpt lat="56.2733880" lon="44.0247420"><time>2019-01-20T08:01:28.987</time></trkpt><trkpt lat="56.2734270" lon="44.0248430"><time>2019-01-20T08:01:31.977</time></trkpt><trkpt lat="56.2734530" lon="44.0249200"><time>2019-01-20T08:01:33.977</time></trkpt><trkpt lat="56.2734970" lon="44.0250050"><time>2019-01-20T08:01:36.977</time></trkpt><trkpt lat="56.2735450" lon="44.0250780"><time>2019-01-20T08:01:39.980</time></trkpt><trkpt lat="56.2735870" lon="44.0251280"><time>2019-01-20T08:01:41.980</time></trkpt><trkpt lat="56.2736230" lon="44.0251880"><time>2019-01-20T08:01:43.977</time></trkpt><trkpt lat="56.2736650" lon="44.0252520"><time>2019-01-20T08:01:45.977</time></trkpt><trkpt lat="56.2737070" lon="44.0253280"><time>2019-01-20T08:01:48.980</time></trkpt><trkpt lat="56.2737520" lon="44.0253770"><time>2019-01-20T08:01:50.977</time></trkpt><trkpt lat="56.2737980" lon="44.0254580"><time>2019-01-20T08:01:53.980</time></trkpt><trkpt lat="56.2738350" lon="44.0255050"><time>2019-01-20T08:01:55.977</time></trkpt><trkpt lat="56.2738730" lon="44.0255930"><time>2019-01-20T08:01:58.977</time></trkpt><trkpt lat="56.2739330" lon="44.0256670"><time>2019-01-20T08:02:00.977</time></trkpt><trkpt lat="56.2739720" lon="44.0257300"><time>2019-01-20T08:02:02.980</time></trkpt><trkpt lat="56.2740180" lon="44.0257880"><time>2019-01-20T08:02:04.977</time></trkpt><trkpt lat="56.2740530" lon="44.0258550"><time>2019-01-20T08:02:06.977</time></trkpt><trkpt lat="56.2740900" lon="44.0259280"><time>2019-01-20T08:02:08.980</time></trkpt><trkpt lat="56.2741250" lon="44.0260000"><time>2019-01-20T08:02:10.977</time></trkpt><trkpt lat="56.2741650" lon="44.0260600"><time>2019-01-20T08:02:12.977</time></trkpt><trkpt lat="56.2742000" lon="44.0261330"><time>2019-01-20T08:02:14.977</time></trkpt><trkpt lat="56.2742420" lon="44.0262000"><time>2019-01-20T08:02:16.980</time></trkpt><trkpt lat="56.2742770" lon="44.0262520"><time>2019-01-20T08:02:18.977</time></trkpt><trkpt lat="56.2743270" lon="44.0263070"><time>2019-01-20T08:02:20.977</time></trkpt><trkpt lat="56.2743620" lon="44.0263630"><time>2019-01-20T08:02:22.977</time></trkpt><trkpt lat="56.2743780" lon="44.0264480"><time>2019-01-20T08:02:24.977</time></trkpt><trkpt lat="56.2744120" lon="44.0265480"><time>2019-01-20T08:02:27.977</time></trkpt><trkpt lat="56.2744450" lon="44.0266030"><time>2019-01-20T08:02:29.990</time></trkpt><trkpt lat="56.2745070" lon="44.0266270"><time>2019-01-20T08:02:33.977</time></trkpt><trkpt lat="56.2745570" lon="44.0266350"><time>2019-01-20T08:02:37.987</time></trkpt><trkpt lat="56.2745580" lon="44.0266430"><time>2019-01-20T08:02:40.887</time></trkpt><trkpt lat="56.2745800" lon="44.0265620"><time>2019-01-20T08:02:51.007</time></trkpt><trkpt lat="56.2746230" lon="44.0265250"><time>2019-01-20T08:02:53.980</time></trkpt><trkpt lat="56.2746730" lon="44.0264900"><time>2019-01-20T08:02:56.977</time></trkpt><trkpt lat="56.2747300" lon="44.0264650"><time>2019-01-20T08:02:59.977</time></trkpt><trkpt lat="56.2747770" lon="44.0264620"><time>2019-01-20T08:03:01.977</time></trkpt><trkpt lat="56.2748280" lon="44.0264600"><time>2019-01-20T08:03:03.977</time></trkpt><trkpt lat="56.2748770" lon="44.0264630"><time>2019-01-20T08:03:05.980</time></trkpt><trkpt lat="56.2749200" lon="44.0264850"><time>2019-01-20T08:03:07.977</time></trkpt><trkpt lat="56.2749720" lon="44.0264980"><time>2019-01-20T08:03:09.980</time></trkpt><trkpt lat="56.2750300" lon="44.0265580"><time>2019-01-20T08:03:12.980</time></trkpt><trkpt lat="56.2750850" lon="44.0265780"><time>2019-01-20T08:03:14.980</time></trkpt><trkpt lat="56.2751330" lon="44.0265620"><time>2019-01-20T08:03:16.977</time></trkpt><trkpt lat="56.2751750" lon="44.0265050"><time>2019-01-20T08:03:19.980</time></trkpt><trkpt lat="56.2752230" lon="44.0264750"><time>2019-01-20T08:03:24.010</time></trkpt><trkpt lat="56.2752430" lon="44.0263580"><time>2019-01-20T08:03:27.977</time></trkpt><trkpt lat="56.2752420" lon="44.0262630"><time>2019-01-20T08:03:29.980</time></trkpt><trkpt lat="56.2752370" lon="44.0261680"><time>2019-01-20T08:03:31.977</time></trkpt><trkpt lat="56.2752300" lon="44.0260870"><time>2019-01-20T08:03:33.977</time></trkpt><trkpt lat="56.2752220" lon="44.0259720"><time>2019-01-20T08:03:36.977</time></trkpt><trkpt lat="56.2752050" lon="44.0258550"><time>2019-01-20T08:03:39.980</time></trkpt><trkpt lat="56.2752050" lon="44.0257500"><time>2019-01-20T08:03:42.977</time></trkpt><trkpt lat="56.2751970" lon="44.0256630"><time>2019-01-20T08:03:44.980</time></trkpt><trkpt lat="56.2751880" lon="44.0255530"><time>2019-01-20T08:03:47.980</time></trkpt><trkpt lat="56.2752030" lon="44.0254480"><time>2019-01-20T08:03:50.977</time></trkpt><trkpt lat="56.2751950" lon="44.0253470"><time>2019-01-20T08:03:54.977</time></trkpt><trkpt lat="56.2751900" lon="44.0252530"><time>2019-01-20T08:03:58.980</time></trkpt><trkpt lat="56.2751850" lon="44.0251620"><time>2019-01-20T08:04:01.977</time></trkpt><trkpt lat="56.2751770" lon="44.0250530"><time>2019-01-20T08:04:04.977</time></trkpt><trkpt lat="56.2751720" lon="44.0249650"><time>2019-01-20T08:04:06.977</time></trkpt><trkpt lat="56.2751700" lon="44.0248820"><time>2019-01-20T08:04:08.980</time></trkpt><trkpt lat="56.2751680" lon="44.0247880"><time>2019-01-20T08:04:10.977</time></trkpt><trkpt lat="56.2751820" lon="44.0246870"><time>2019-01-20T08:04:13.980</time></trkpt><trkpt lat="56.2752180" lon="44.0246300"><time>2019-01-20T08:04:15.977</time></trkpt><trkpt lat="56.2752670" lon="44.0246080"><time>2019-01-20T08:04:17.977</time></trkpt><trkpt lat="56.2753200" lon="44.0245850"><time>2019-01-20T08:04:19.977</time></trkpt><trkpt lat="56.2753870" lon="44.0245470"><time>2019-01-20T08:04:23.980</time></trkpt><trkpt lat="56.2754370" lon="44.0245330"><time>2019-01-20T08:04:25.980</time></trkpt><trkpt lat="56.2754900" lon="44.0245180"><time>2019-01-20T08:04:27.977</time></trkpt><trkpt lat="56.2755420" lon="44.0245050"><time>2019-01-20T08:04:29.980</time></trkpt><trkpt lat="56.2755970" lon="44.0244850"><time>2019-01-20T08:04:31.977</time></trkpt><trkpt lat="56.2756420" lon="44.0244720"><time>2019-01-20T08:04:33.977</time></trkpt><trkpt lat="56.2757080" lon="44.0244600"><time>2019-01-20T08:04:36.977</time></trkpt><trkpt lat="56.2757630" lon="44.0244550"><time>2019-01-20T08:04:38.977</time></trkpt><trkpt lat="56.2758200" lon="44.0244470"><time>2019-01-20T08:04:40.977</time></trkpt><trkpt lat="56.2758650" lon="44.0244400"><time>2019-01-20T08:04:42.977</time></trkpt><trkpt lat="56.2759120" lon="44.0244320"><time>2019-01-20T08:04:44.983</time></trkpt><trkpt lat="56.2759580" lon="44.0244170"><time>2019-01-20T08:04:46.977</time></trkpt><trkpt lat="56.2760080" lon="44.0244020"><time>2019-01-20T08:04:49.110</time></trkpt><trkpt lat="56.2760670" lon="44.0243820"><time>2019-01-20T08:04:51.977</time></trkpt><trkpt lat="56.2761150" lon="44.0243680"><time>2019-01-20T08:04:53.980</time></trkpt><trkpt lat="56.2761720" lon="44.0243550"><time>2019-01-20T08:04:56.977</time></trkpt><trkpt lat="56.2762300" lon="44.0243430"><time>2019-01-20T08:04:59.980</time></trkpt><trkpt lat="56.2762800" lon="44.0243320"><time>2019-01-20T08:05:02.980</time></trkpt><trkpt lat="56.2763520" lon="44.0243150"><time>2019-01-20T08:05:05.980</time></trkpt><trkpt lat="56.2764150" lon="44.0242930"><time>2019-01-20T08:05:08.977</time></trkpt><trkpt lat="56.2764720" lon="44.0242580"><time>2019-01-20T08:05:11.980</time></trkpt><trkpt lat="56.2765000" lon="44.0241770"><time>2019-01-20T08:05:14.977</time></trkpt><trkpt lat="56.2765370" lon="44.0240970"><time>2019-01-20T08:05:17.980</time></trkpt><trkpt lat="56.2765430" lon="44.0239880"><time>2019-01-20T08:05:20.977</time></trkpt><trkpt lat="56.2765500" lon="44.0238770"><time>2019-01-20T08:05:23.980</time></trkpt><trkpt lat="56.2765520" lon="44.0237730"><time>2019-01-20T08:05:26.977</time></trkpt><trkpt lat="56.2765420" lon="44.0236630"><time>2019-01-20T08:05:29.980</time></trkpt><trkpt lat="56.2765480" lon="44.0235750"><time>2019-01-20T08:05:32.980</time></trkpt><trkpt lat="56.2765680" lon="44.0234880"><time>2019-01-20T08:05:35.980</time></trkpt><trkpt lat="56.2765780" lon="44.0233730"><time>2019-01-20T08:05:39.977</time></trkpt><trkpt lat="56.2765820" lon="44.0232620"><time>2019-01-20T08:05:42.980</time></trkpt><trkpt lat="56.2765750" lon="44.0231820"><time>2019-01-20T08:05:44.980</time></trkpt><trkpt lat="56.2765680" lon="44.0230880"><time>2019-01-20T08:05:47.983</time></trkpt><trkpt lat="56.2765670" lon="44.0229870"><time>2019-01-20T08:05:51.977</time></trkpt><trkpt lat="56.2765470" lon="44.0228720"><time>2019-01-20T08:05:55.980</time></trkpt><trkpt lat="56.2765220" lon="44.0227920"><time>2019-01-20T08:05:58.977</time></trkpt><trkpt lat="56.2765100" lon="44.0227120"><time>2019-01-20T08:06:01.977</time></trkpt><trkpt lat="56.2765170" lon="44.0226180"><time>2019-01-20T08:06:05.980</time></trkpt><trkpt lat="56.2765120" lon="44.0225170"><time>2019-01-20T08:06:08.977</time></trkpt><trkpt lat="56.2765150" lon="44.0224200"><time>2019-01-20T08:06:11.983</time></trkpt><trkpt lat="56.2765200" lon="44.0223220"><time>2019-01-20T08:06:14.977</time></trkpt><trkpt lat="56.2765150" lon="44.0222120"><time>2019-01-20T08:06:18.977</time></trkpt><trkpt lat="56.2765300" lon="44.0221300"><time>2019-01-20T08:06:22.980</time></trkpt><trkpt lat="56.2765320" lon="44.0220430"><time>2019-01-20T08:06:26.977</time></trkpt><trkpt lat="56.2765250" lon="44.0219580"><time>2019-01-20T08:06:29.980</time></trkpt><trkpt lat="56.2765280" lon="44.0218620"><time>2019-01-20T08:06:33.977</time></trkpt><trkpt lat="56.2765500" lon="44.0217770"><time>2019-01-20T08:06:37.980</time></trkpt><trkpt lat="56.2765670" lon="44.0216980"><time>2019-01-20T08:06:41.980</time></trkpt><trkpt lat="56.2765820" lon="44.0216080"><time>2019-01-20T08:06:45.977</time></trkpt><trkpt lat="56.2765570" lon="44.0215150"><time>2019-01-20T08:06:48.977</time></trkpt><trkpt lat="56.2765420" lon="44.0214130"><time>2019-01-20T08:06:51.977</time></trkpt><trkpt lat="56.2765350" lon="44.0213200"><time>2019-01-20T08:06:54.977</time></trkpt><trkpt lat="56.2765170" lon="44.0212230"><time>2019-01-20T08:06:58.977</time></trkpt><trkpt lat="56.2765020" lon="44.0211470"><time>2019-01-20T08:07:02.977</time></trkpt><trkpt lat="56.2765000" lon="44.0210630"><time>2019-01-20T08:07:06.980</time></trkpt><trkpt lat="56.2765050" lon="44.0209820"><time>2019-01-20T08:07:09.977</time></trkpt><trkpt lat="56.2765430" lon="44.0209270"><time>2019-01-20T08:07:13.977</time></trkpt><trkpt lat="56.2765950" lon="44.0208980"><time>2019-01-20T08:07:19.010</time></trkpt><trkpt lat="56.2766380" lon="44.0208700"><time>2019-01-20T08:07:22.977</time></trkpt><trkpt lat="56.2766470" lon="44.0208420"><time>2019-01-20T08:07:45.867</time></trkpt><trkpt lat="56.2766950" lon="44.0208480"><time>2019-01-20T08:07:52.983</time></trkpt><trkpt lat="56.2767450" lon="44.0208070"><time>2019-01-20T08:07:56.983</time></trkpt><trkpt lat="56.2768000" lon="44.0207830"><time>2019-01-20T08:07:59.987</time></trkpt><trkpt lat="56.2768520" lon="44.0207400"><time>2019-01-20T08:08:02.980</time></trkpt><trkpt lat="56.2768980" lon="44.0206980"><time>2019-01-20T08:08:05.987</time></trkpt><trkpt lat="56.2769430" lon="44.0206970"><time>2019-01-20T08:08:08.980</time></trkpt><trkpt lat="56.2769930" lon="44.0207230"><time>2019-01-20T08:08:11.987</time></trkpt><trkpt lat="56.2770450" lon="44.0207530"><time>2019-01-20T08:08:14.983</time></trkpt><trkpt lat="56.2770980" lon="44.0208020"><time>2019-01-20T08:08:17.987</time></trkpt><trkpt lat="56.2771330" lon="44.0208530"><time>2019-01-20T08:08:19.980</time></trkpt><trkpt lat="56.2771800" lon="44.0209000"><time>2019-01-20T08:08:21.980</time></trkpt><trkpt lat="56.2772370" lon="44.0209370"><time>2019-01-20T08:08:25.077</time></trkpt><trkpt lat="56.2772870" lon="44.0209200"><time>2019-01-20T08:08:27.983</time></trkpt><trkpt lat="56.2773430" lon="44.0209050"><time>2019-01-20T08:08:30.983</time></trkpt><trkpt lat="56.2773880" lon="44.0208970"><time>2019-01-20T08:08:32.983</time></trkpt><trkpt lat="56.2774420" lon="44.0208830"><time>2019-01-20T08:08:35.987</time></trkpt><trkpt lat="56.2774880" lon="44.0208780"><time>2019-01-20T08:08:38.983</time></trkpt><trkpt lat="56.2775400" lon="44.0208550"><time>2019-01-20T08:08:41.987</time></trkpt><trkpt lat="56.2775970" lon="44.0208170"><time>2019-01-20T08:08:44.980</time></trkpt><trkpt lat="56.2776570" lon="44.0208130"><time>2019-01-20T08:08:48.980</time></trkpt><trkpt lat="56.2777080" lon="44.0208120"><time>2019-01-20T08:08:51.983</time></trkpt><trkpt lat="56.2777550" lon="44.0208200"><time>2019-01-20T08:08:53.987</time></trkpt><trkpt lat="56.2778100" lon="44.0208550"><time>2019-01-20T08:08:56.980</time></trkpt><trkpt lat="56.2778450" lon="44.0209370"><time>2019-01-20T08:08:59.983</time></trkpt><trkpt lat="56.2778830" lon="44.0209950"><time>2019-01-20T08:09:02.980</time></trkpt><trkpt lat="56.2779330" lon="44.0210600"><time>2019-01-20T08:09:05.983</time></trkpt><trkpt lat="56.2779780" lon="44.0211350"><time>2019-01-20T08:09:08.990</time></trkpt><trkpt lat="56.2780170" lon="44.0211900"><time>2019-01-20T08:09:10.983</time></trkpt><trkpt lat="56.2780500" lon="44.0212550"><time>2019-01-20T08:09:12.980</time></trkpt><trkpt lat="56.2780800" lon="44.0213180"><time>2019-01-20T08:09:14.980</time></trkpt><trkpt lat="56.2781370" lon="44.0213950"><time>2019-01-20T08:09:17.983</time></trkpt><trkpt lat="56.2781850" lon="44.0214580"><time>2019-01-20T08:09:20.983</time></trkpt><trkpt lat="56.2782270" lon="44.0214970"><time>2019-01-20T08:09:22.980</time></trkpt><trkpt lat="56.2782620" lon="44.0215550"><time>2019-01-20T08:09:24.983</time></trkpt><trkpt lat="56.2783120" lon="44.0216180"><time>2019-01-20T08:09:27.983</time></trkpt><trkpt lat="56.2783620" lon="44.0216820"><time>2019-01-20T08:09:30.980</time></trkpt><trkpt lat="56.2784100" lon="44.0217620"><time>2019-01-20T08:09:33.980</time></trkpt><trkpt lat="56.2784470" lon="44.0218180"><time>2019-01-20T08:09:35.987</time></trkpt><trkpt lat="56.2784830" lon="44.0218780"><time>2019-01-20T08:09:37.983</time></trkpt><trkpt lat="56.2785250" lon="44.0219300"><time>2019-01-20T08:09:39.980</time></trkpt><trkpt lat="56.2785620" lon="44.0219820"><time>2019-01-20T08:09:41.987</time></trkpt><trkpt lat="56.2786050" lon="44.0220580"><time>2019-01-20T08:09:44.980</time></trkpt><trkpt lat="56.2786520" lon="44.0221330"><time>2019-01-20T08:09:47.990</time></trkpt><trkpt lat="56.2786870" lon="44.0222030"><time>2019-01-20T08:09:49.983</time></trkpt><trkpt lat="56.2787230" lon="44.0222570"><time>2019-01-20T08:09:51.980</time></trkpt><trkpt lat="56.2787680" lon="44.0223130"><time>2019-01-20T08:09:53.990</time></trkpt><trkpt lat="56.2788150" lon="44.0223930"><time>2019-01-20T08:09:55.983</time></trkpt><trkpt lat="56.2788500" lon="44.0224450"><time>2019-01-20T08:09:57.983</time></trkpt><trkpt lat="56.2788870" lon="44.0225100"><time>2019-01-20T08:09:59.987</time></trkpt><trkpt lat="56.2789220" lon="44.0225670"><time>2019-01-20T08:10:01.980</time></trkpt><trkpt lat="56.2789620" lon="44.0226280"><time>2019-01-20T08:10:03.980</time></trkpt><trkpt lat="56.2790020" lon="44.0226900"><time>2019-01-20T08:10:05.983</time></trkpt><trkpt lat="56.2790380" lon="44.0227470"><time>2019-01-20T08:10:07.983</time></trkpt><trkpt lat="56.2790900" lon="44.0228270"><time>2019-01-20T08:10:10.980</time></trkpt><trkpt lat="56.2791320" lon="44.0228830"><time>2019-01-20T08:10:12.980</time></trkpt><trkpt lat="56.2791680" lon="44.0229420"><time>2019-01-20T08:10:14.980</time></trkpt><trkpt lat="56.2792080" lon="44.0229820"><time>2019-01-20T08:10:16.980</time></trkpt><trkpt lat="56.2792530" lon="44.0230250"><time>2019-01-20T08:10:18.980</time></trkpt><trkpt lat="56.2792920" lon="44.0230770"><time>2019-01-20T08:10:20.980</time></trkpt><trkpt lat="56.2793350" lon="44.0231420"><time>2019-01-20T08:10:22.980</time></trkpt><trkpt lat="56.2793770" lon="44.0232030"><time>2019-01-20T08:10:24.980</time></trkpt><trkpt lat="56.2794150" lon="44.0232630"><time>2019-01-20T08:10:26.983</time></trkpt><trkpt lat="56.2794450" lon="44.0233320"><time>2019-01-20T08:10:28.987</time></trkpt><trkpt lat="56.2794670" lon="44.0234430"><time>2019-01-20T08:10:31.983</time></trkpt><trkpt lat="56.2794680" lon="44.0235370"><time>2019-01-20T08:10:33.980</time></trkpt><trkpt lat="56.2794380" lon="44.0236330"><time>2019-01-20T08:10:36.980</time></trkpt><trkpt lat="56.2794120" lon="44.0237000"><time>2019-01-20T08:10:38.983</time></trkpt><trkpt lat="56.2793870" lon="44.0237730"><time>2019-01-20T08:10:40.980</time></trkpt><trkpt lat="56.2793620" lon="44.0238470"><time>2019-01-20T08:10:42.980</time></trkpt><trkpt lat="56.2793320" lon="44.0239130"><time>2019-01-20T08:10:44.980</time></trkpt><trkpt lat="56.2793080" lon="44.0239850"><time>2019-01-20T08:10:46.977</time></trkpt><trkpt lat="56.2793000" lon="44.0240680"><time>2019-01-20T08:10:48.980</time></trkpt><trkpt lat="56.2793130" lon="44.0241570"><time>2019-01-20T08:10:50.977</time></trkpt><trkpt lat="56.2793300" lon="44.0242580"><time>2019-01-20T08:10:52.977</time></trkpt><trkpt lat="56.2793520" lon="44.0243300"><time>2019-01-20T08:10:54.993</time></trkpt><trkpt lat="56.2793780" lon="44.0243970"><time>2019-01-20T08:10:56.977</time></trkpt><trkpt lat="56.2794200" lon="44.0245000"><time>2019-01-20T08:10:59.990</time></trkpt><trkpt lat="56.2794700" lon="44.0245970"><time>2019-01-20T08:11:02.977</time></trkpt><trkpt lat="56.2795170" lon="44.0246620"><time>2019-01-20T08:11:04.977</time></trkpt><trkpt lat="56.2795470" lon="44.0247370"><time>2019-01-20T08:11:06.977</time></trkpt><trkpt lat="56.2795830" lon="44.0248120"><time>2019-01-20T08:11:08.977</time></trkpt><trkpt lat="56.2796170" lon="44.0248770"><time>2019-01-20T08:11:10.977</time></trkpt><trkpt lat="56.2796470" lon="44.0249550"><time>2019-01-20T08:11:12.977</time></trkpt><trkpt lat="56.2796820" lon="44.0250170"><time>2019-01-20T08:11:14.977</time></trkpt><trkpt lat="56.2797100" lon="44.0251130"><time>2019-01-20T08:11:17.983</time></trkpt><trkpt lat="56.2797400" lon="44.0251800"><time>2019-01-20T08:11:19.980</time></trkpt><trkpt lat="56.2797720" lon="44.0252680"><time>2019-01-20T08:11:22.977</time></trkpt><trkpt lat="56.2797950" lon="44.0253500"><time>2019-01-20T08:11:24.977</time></trkpt><trkpt lat="56.2798150" lon="44.0254270"><time>2019-01-20T08:11:26.977</time></trkpt><trkpt lat="56.2798420" lon="44.0255000"><time>2019-01-20T08:11:28.977</time></trkpt><trkpt lat="56.2798770" lon="44.0255580"><time>2019-01-20T08:11:30.987</time></trkpt><trkpt lat="56.2799120" lon="44.0256280"><time>2019-01-20T08:11:32.977</time></trkpt><trkpt lat="56.2799470" lon="44.0257080"><time>2019-01-20T08:11:34.977</time></trkpt><trkpt lat="56.2799820" lon="44.0257920"><time>2019-01-20T08:11:36.977</time></trkpt><trkpt lat="56.2800200" lon="44.0258550"><time>2019-01-20T08:11:38.977</time></trkpt><trkpt lat="56.2800580" lon="44.0259470"><time>2019-01-20T08:11:41.980</time></trkpt><trkpt lat="56.2800970" lon="44.0260380"><time>2019-01-20T08:11:44.977</time></trkpt><trkpt lat="56.2801150" lon="44.0261370"><time>2019-01-20T08:11:47.983</time></trkpt><trkpt lat="56.2801300" lon="44.0262370"><time>2019-01-20T08:11:50.980</time></trkpt><trkpt lat="56.2801570" lon="44.0263180"><time>2019-01-20T08:11:52.977</time></trkpt><trkpt lat="56.2801930" lon="44.0263830"><time>2019-01-20T08:11:54.977</time></trkpt><trkpt lat="56.2802350" lon="44.0264250"><time>2019-01-20T08:11:56.980</time></trkpt><trkpt lat="56.2802820" lon="44.0264570"><time>2019-01-20T08:11:58.980</time></trkpt><trkpt lat="56.2803370" lon="44.0265250"><time>2019-01-20T08:12:01.977</time></trkpt><trkpt lat="56.2803820" lon="44.0266170"><time>2019-01-20T08:12:04.977</time></trkpt><trkpt lat="56.2804080" lon="44.0266970"><time>2019-01-20T08:12:06.977</time></trkpt><trkpt lat="56.2804320" lon="44.0268120"><time>2019-01-20T08:12:09.980</time></trkpt><trkpt lat="56.2804400" lon="44.0269020"><time>2019-01-20T08:12:11.983</time></trkpt><trkpt lat="56.2804500" lon="44.0270130"><time>2019-01-20T08:12:14.980</time></trkpt><trkpt lat="56.2804550" lon="44.0271050"><time>2019-01-20T08:12:16.977</time></trkpt><trkpt lat="56.2804580" lon="44.0271950"><time>2019-01-20T08:12:18.977</time></trkpt><trkpt lat="56.2804570" lon="44.0272920"><time>2019-01-20T08:12:20.977</time></trkpt><trkpt lat="56.2804500" lon="44.0274080"><time>2019-01-20T08:12:23.980</time></trkpt><trkpt lat="56.2804480" lon="44.0275050"><time>2019-01-20T08:12:25.977</time></trkpt><trkpt lat="56.2804530" lon="44.0276170"><time>2019-01-20T08:12:28.977</time></trkpt><trkpt lat="56.2804700" lon="44.0276980"><time>2019-01-20T08:12:30.977</time></trkpt><trkpt lat="56.2804970" lon="44.0277700"><time>2019-01-20T08:12:32.977</time></trkpt><trkpt lat="56.2805370" lon="44.0278530"><time>2019-01-20T08:12:35.983</time></trkpt><trkpt lat="56.2805730" lon="44.0279230"><time>2019-01-20T08:12:37.977</time></trkpt><trkpt lat="56.2806050" lon="44.0279830"><time>2019-01-20T08:12:39.977</time></trkpt><trkpt lat="56.2806400" lon="44.0280450"><time>2019-01-20T08:12:41.987</time></trkpt><trkpt lat="56.2806720" lon="44.0281050"><time>2019-01-20T08:12:43.977</time></trkpt><trkpt lat="56.2807030" lon="44.0281750"><time>2019-01-20T08:12:45.977</time></trkpt><trkpt lat="56.2807420" lon="44.0282530"><time>2019-01-20T08:12:49.977</time></trkpt><trkpt lat="56.2807700" lon="44.0283170"><time>2019-01-20T08:12:51.980</time></trkpt><trkpt lat="56.2808030" lon="44.0283950"><time>2019-01-20T08:12:53.983</time></trkpt><trkpt lat="56.2808320" lon="44.0284920"><time>2019-01-20T08:12:56.977</time></trkpt><trkpt lat="56.2808630" lon="44.0285600"><time>2019-01-20T08:12:58.977</time></trkpt><trkpt lat="56.2808970" lon="44.0286300"><time>2019-01-20T08:13:00.977</time></trkpt><trkpt lat="56.2809320" lon="44.0287120"><time>2019-01-20T08:13:03.977</time></trkpt><trkpt lat="56.2809700" lon="44.0287800"><time>2019-01-20T08:13:05.983</time></trkpt><trkpt lat="56.2810050" lon="44.0288720"><time>2019-01-20T08:13:08.977</time></trkpt><trkpt lat="56.2810450" lon="44.0289570"><time>2019-01-20T08:13:11.983</time></trkpt><trkpt lat="56.2810700" lon="44.0290480"><time>2019-01-20T08:13:14.977</time></trkpt><trkpt lat="56.2810920" lon="44.0291350"><time>2019-01-20T08:13:17.987</time></trkpt><trkpt lat="56.2811300" lon="44.0291950"><time>2019-01-20T08:13:21.977</time></trkpt><trkpt lat="56.2811700" lon="44.0292400"><time>2019-01-20T08:13:24.977</time></trkpt><trkpt lat="56.2812200" lon="44.0292770"><time>2019-01-20T08:13:27.977</time></trkpt><trkpt lat="56.2812650" lon="44.0292920"><time>2019-01-20T08:13:29.983</time></trkpt><trkpt lat="56.2813170" lon="44.0293330"><time>2019-01-20T08:13:32.977</time></trkpt><trkpt lat="56.2813700" lon="44.0293920"><time>2019-01-20T08:13:36.977</time></trkpt><trkpt lat="56.2814200" lon="44.0294170"><time>2019-01-20T08:13:39.977</time></trkpt><trkpt lat="56.2814700" lon="44.0294100"><time>2019-01-20T08:13:44.977</time></trkpt><trkpt lat="56.2815280" lon="44.0294550"><time>2019-01-20T08:13:48.977</time></trkpt><trkpt lat="56.2815730" lon="44.0294880"><time>2019-01-20T08:13:51.977</time></trkpt><trkpt lat="56.2816200" lon="44.0295120"><time>2019-01-20T08:13:54.977</time></trkpt><trkpt lat="56.2816700" lon="44.0295420"><time>2019-01-20T08:13:58.977</time></trkpt><trkpt lat="56.2817150" lon="44.0295800"><time>2019-01-20T08:14:01.977</time></trkpt><trkpt lat="56.2817600" lon="44.0296030"><time>2019-01-20T08:14:05.983</time></trkpt><trkpt lat="56.2818050" lon="44.0296300"><time>2019-01-20T08:14:08.977</time></trkpt><trkpt lat="56.2818520" lon="44.0296720"><time>2019-01-20T08:14:12.983</time></trkpt><trkpt lat="56.2819050" lon="44.0297080"><time>2019-01-20T08:14:16.977</time></trkpt><trkpt lat="56.2819520" lon="44.0297350"><time>2019-01-20T08:14:19.977</time></trkpt><trkpt lat="56.2820030" lon="44.0297680"><time>2019-01-20T08:14:23.983</time></trkpt><trkpt lat="56.2820570" lon="44.0297950"><time>2019-01-20T08:14:27.977</time></trkpt><trkpt lat="56.2821120" lon="44.0298250"><time>2019-01-20T08:14:31.977</time></trkpt><trkpt lat="56.2821580" lon="44.0298530"><time>2019-01-20T08:14:34.977</time></trkpt><trkpt lat="56.2822100" lon="44.0298780"><time>2019-01-20T08:14:38.977</time></trkpt><trkpt lat="56.2822600" lon="44.0299030"><time>2019-01-20T08:14:42.980</time></trkpt><trkpt lat="56.2823100" lon="44.0299350"><time>2019-01-20T08:14:46.977</time></trkpt><trkpt lat="56.2823600" lon="44.0299620"><time>2019-01-20T08:14:50.977</time></trkpt><trkpt lat="56.2824080" lon="44.0299950"><time>2019-01-20T08:14:54.977</time></trkpt><trkpt lat="56.2824580" lon="44.0300280"><time>2019-01-20T08:14:58.977</time></trkpt><trkpt lat="56.2825030" lon="44.0300670"><time>2019-01-20T08:15:02.977</time></trkpt><trkpt lat="56.2825530" lon="44.0300750"><time>2019-01-20T08:15:06.977</time></trkpt><trkpt lat="56.2826100" lon="44.0301170"><time>2019-01-20T08:15:10.977</time></trkpt><trkpt lat="56.2826580" lon="44.0301270"><time>2019-01-20T08:15:13.980</time></trkpt><trkpt lat="56.2827020" lon="44.0301570"><time>2019-01-20T08:15:17.983</time></trkpt><trkpt lat="56.2827450" lon="44.0301900"><time>2019-01-20T08:15:24.987</time></trkpt><trkpt lat="56.2827900" lon="44.0301950"><time>2019-01-20T08:15:32.980</time></trkpt><trkpt lat="56.2827900" lon="44.0301950"><time>2019-01-20T08:15:33.663</time></trkpt><trkpt lat="56.2827400" lon="44.0302150"><time>2019-01-20T08:15:42.980</time></trkpt><trkpt lat="56.2827780" lon="44.0301450"><time>2019-01-20T08:15:48.977</time></trkpt><trkpt lat="56.2828180" lon="44.0300650"><time>2019-01-20T08:15:51.977</time></trkpt><trkpt lat="56.2828620" lon="44.0300120"><time>2019-01-20T08:15:54.977</time></trkpt><trkpt lat="56.2829080" lon="44.0299600"><time>2019-01-20T08:15:57.977</time></trkpt><trkpt lat="56.2829600" lon="44.0298950"><time>2019-01-20T08:16:00.977</time></trkpt><trkpt lat="56.2830050" lon="44.0298750"><time>2019-01-20T08:16:02.980</time></trkpt><trkpt lat="56.2830550" lon="44.0298600"><time>2019-01-20T08:16:05.983</time></trkpt><trkpt lat="56.2831030" lon="44.0298620"><time>2019-01-20T08:16:08.977</time></trkpt><trkpt lat="56.2831520" lon="44.0298320"><time>2019-01-20T08:16:12.980</time></trkpt><trkpt lat="56.2832100" lon="44.0298370"><time>2019-01-20T08:16:15.977</time></trkpt><trkpt lat="56.2832530" lon="44.0297930"><time>2019-01-20T08:16:18.977</time></trkpt><trkpt lat="56.2833100" lon="44.0297250"><time>2019-01-20T08:16:20.977</time></trkpt><trkpt lat="56.2833430" lon="44.0296650"><time>2019-01-20T08:16:22.977</time></trkpt><trkpt lat="56.2833980" lon="44.0296200"><time>2019-01-20T08:16:24.977</time></trkpt><trkpt lat="56.2834400" lon="44.0295720"><time>2019-01-20T08:16:26.977</time></trkpt><trkpt lat="56.2834920" lon="44.0295200"><time>2019-01-20T08:16:28.977</time></trkpt><trkpt lat="56.2835400" lon="44.0294380"><time>2019-01-20T08:16:31.990</time></trkpt><trkpt lat="56.2835720" lon="44.0293430"><time>2019-01-20T08:16:34.977</time></trkpt><trkpt lat="56.2836030" lon="44.0292650"><time>2019-01-20T08:16:37.977</time></trkpt><trkpt lat="56.2836230" lon="44.0291550"><time>2019-01-20T08:16:40.977</time></trkpt><trkpt lat="56.2836420" lon="44.0290750"><time>2019-01-20T08:16:42.977</time></trkpt><trkpt lat="56.2836520" lon="44.0289720"><time>2019-01-20T08:16:44.980</time></trkpt><trkpt lat="56.2836770" lon="44.0288780"><time>2019-01-20T08:16:46.977</time></trkpt><trkpt lat="56.2837030" lon="44.0287830"><time>2019-01-20T08:16:49.977</time></trkpt><trkpt lat="56.2837420" lon="44.0286880"><time>2019-01-20T08:16:52.977</time></trkpt><trkpt lat="56.2837800" lon="44.0285970"><time>2019-01-20T08:16:55.977</time></trkpt><trkpt lat="56.2837970" lon="44.0285050"><time>2019-01-20T08:16:57.980</time></trkpt><trkpt lat="56.2837980" lon="44.0283880"><time>2019-01-20T08:17:00.977</time></trkpt><trkpt lat="56.2837920" lon="44.0282980"><time>2019-01-20T08:17:02.977</time></trkpt><trkpt lat="56.2837750" lon="44.0282220"><time>2019-01-20T08:17:04.980</time></trkpt><trkpt lat="56.2837550" lon="44.0281220"><time>2019-01-20T08:17:07.977</time></trkpt><trkpt lat="56.2837430" lon="44.0280280"><time>2019-01-20T08:17:10.977</time></trkpt><trkpt lat="56.2837230" lon="44.0279480"><time>2019-01-20T08:17:12.977</time></trkpt><trkpt lat="56.2837020" lon="44.0278550"><time>2019-01-20T08:17:14.977</time></trkpt><trkpt lat="56.2836920" lon="44.0277620"><time>2019-01-20T08:17:16.977</time></trkpt><trkpt lat="56.2836750" lon="44.0276580"><time>2019-01-20T08:17:19.023</time></trkpt><trkpt lat="56.2836620" lon="44.0275550"><time>2019-01-20T08:17:21.977</time></trkpt><trkpt lat="56.2836230" lon="44.0274750"><time>2019-01-20T08:17:24.977</time></trkpt><trkpt lat="56.2836030" lon="44.0273750"><time>2019-01-20T08:17:27.977</time></trkpt><trkpt lat="56.2835880" lon="44.0272730"><time>2019-01-20T08:17:30.977</time></trkpt><trkpt lat="56.2835800" lon="44.0271850"><time>2019-01-20T08:17:32.977</time></trkpt><trkpt lat="56.2835630" lon="44.0270930"><time>2019-01-20T08:17:34.977</time></trkpt><trkpt lat="56.2835420" lon="44.0270100"><time>2019-01-20T08:17:36.977</time></trkpt><trkpt lat="56.2835250" lon="44.0269280"><time>2019-01-20T08:17:38.980</time></trkpt><trkpt lat="56.2835100" lon="44.0268330"><time>2019-01-20T08:17:40.977</time></trkpt><trkpt lat="56.2834980" lon="44.0267350"><time>2019-01-20T08:17:43.123</time></trkpt><trkpt lat="56.2834850" lon="44.0266350"><time>2019-01-20T08:17:44.977</time></trkpt><trkpt lat="56.2834630" lon="44.0265330"><time>2019-01-20T08:17:46.977</time></trkpt><trkpt lat="56.2834500" lon="44.0264230"><time>2019-01-20T08:17:49.977</time></trkpt><trkpt lat="56.2834300" lon="44.0263180"><time>2019-01-20T08:17:52.980</time></trkpt><trkpt lat="56.2833950" lon="44.0262420"><time>2019-01-20T08:17:54.977</time></trkpt><trkpt lat="56.2833530" lon="44.0261220"><time>2019-01-20T08:17:56.977</time></trkpt><trkpt lat="56.2833230" lon="44.0260170"><time>2019-01-20T08:17:58.977</time></trkpt><trkpt lat="56.2833000" lon="44.0259300"><time>2019-01-20T08:18:00.977</time></trkpt><trkpt lat="56.2832730" lon="44.0258350"><time>2019-01-20T08:18:02.977</time></trkpt><trkpt lat="56.2832400" lon="44.0257620"><time>2019-01-20T08:18:04.977</time></trkpt><trkpt lat="56.2832130" lon="44.0256830"><time>2019-01-20T08:18:06.977</time></trkpt><trkpt lat="56.2831850" lon="44.0255930"><time>2019-01-20T08:18:08.977</time></trkpt><trkpt lat="56.2831730" lon="44.0255120"><time>2019-01-20T08:18:11.983</time></trkpt><trkpt lat="56.2831530" lon="44.0254380"><time>2019-01-20T08:18:14.977</time></trkpt><trkpt lat="56.2831100" lon="44.0253180"><time>2019-01-20T08:18:17.980</time></trkpt><trkpt lat="56.2830820" lon="44.0252480"><time>2019-01-20T08:18:19.980</time></trkpt><trkpt lat="56.2830450" lon="44.0251530"><time>2019-01-20T08:18:21.977</time></trkpt><trkpt lat="56.2830170" lon="44.0250720"><time>2019-01-20T08:18:24.977</time></trkpt><trkpt lat="56.2829920" lon="44.0249850"><time>2019-01-20T08:18:27.980</time></trkpt><trkpt lat="56.2829630" lon="44.0248970"><time>2019-01-20T08:18:30.977</time></trkpt><trkpt lat="56.2829570" lon="44.0248150"><time>2019-01-20T08:18:33.977</time></trkpt><trkpt lat="56.2829630" lon="44.0247120"><time>2019-01-20T08:18:37.980</time></trkpt><trkpt lat="56.2829880" lon="44.0246050"><time>2019-01-20T08:18:40.977</time></trkpt><trkpt lat="56.2830180" lon="44.0245430"><time>2019-01-20T08:18:42.983</time></trkpt><trkpt lat="56.2830570" lon="44.0244700"><time>2019-01-20T08:18:45.977</time></trkpt><trkpt lat="56.2830880" lon="44.0243950"><time>2019-01-20T08:18:48.980</time></trkpt><trkpt lat="56.2831220" lon="44.0243100"><time>2019-01-20T08:18:51.977</time></trkpt><trkpt lat="56.2831530" lon="44.0242250"><time>2019-01-20T08:18:54.977</time></trkpt><trkpt lat="56.2831780" lon="44.0241330"><time>2019-01-20T08:18:57.977</time></trkpt><trkpt lat="56.2832030" lon="44.0240530"><time>2019-01-20T08:19:00.977</time></trkpt><trkpt lat="56.2832120" lon="44.0239580"><time>2019-01-20T08:19:04.977</time></trkpt><trkpt lat="56.2832250" lon="44.0238800"><time>2019-01-20T08:19:07.980</time></trkpt><trkpt lat="56.2832670" lon="44.0238070"><time>2019-01-20T08:19:10.977</time></trkpt><trkpt lat="56.2832870" lon="44.0237420"><time>2019-01-20T08:19:19.767</time></trkpt><trkpt lat="56.2833020" lon="44.0237530"><time>2019-01-20T08:19:22.977</time></trkpt><trkpt lat="56.2833500" lon="44.0237170"><time>2019-01-20T08:19:26.977</time></trkpt><trkpt lat="56.2833970" lon="44.0236900"><time>2019-01-20T08:19:31.977</time></trkpt><trkpt lat="56.2834420" lon="44.0236950"><time>2019-01-20T08:19:35.983</time></trkpt><trkpt lat="56.2834900" lon="44.0237030"><time>2019-01-20T08:19:37.977</time></trkpt><trkpt lat="56.2835480" lon="44.0237050"><time>2019-01-20T08:19:40.977</time></trkpt><trkpt lat="56.2836030" lon="44.0237300"><time>2019-01-20T08:19:44.977</time></trkpt><trkpt lat="56.2836500" lon="44.0237900"><time>2019-01-20T08:19:48.977</time></trkpt><trkpt lat="56.2836970" lon="44.0238330"><time>2019-01-20T08:19:51.980</time></trkpt><trkpt lat="56.2837450" lon="44.0238770"><time>2019-01-20T08:19:54.977</time></trkpt><trkpt lat="56.2837950" lon="44.0239130"><time>2019-01-20T08:19:57.980</time></trkpt><trkpt lat="56.2838480" lon="44.0239780"><time>2019-01-20T08:20:00.977</time></trkpt><trkpt lat="56.2838980" lon="44.0240100"><time>2019-01-20T08:20:03.977</time></trkpt><trkpt lat="56.2839420" lon="44.0240520"><time>2019-01-20T08:20:06.050</time></trkpt><trkpt lat="56.2839950" lon="44.0240820"><time>2019-01-20T08:20:08.977</time></trkpt><trkpt lat="56.2840570" lon="44.0240770"><time>2019-01-20T08:20:11.990</time></trkpt><trkpt lat="56.2841030" lon="44.0240700"><time>2019-01-20T08:20:14.977</time></trkpt><trkpt lat="56.2841600" lon="44.0240420"><time>2019-01-20T08:20:18.977</time></trkpt><trkpt lat="56.2842100" lon="44.0240170"><time>2019-01-20T08:20:21.977</time></trkpt><trkpt lat="56.2842650" lon="44.0240100"><time>2019-01-20T08:20:24.977</time></trkpt><trkpt lat="56.2843180" lon="44.0239730"><time>2019-01-20T08:20:26.977</time></trkpt><trkpt lat="56.2843780" lon="44.0239570"><time>2019-01-20T08:20:29.983</time></trkpt><trkpt lat="56.2844300" lon="44.0239270"><time>2019-01-20T08:20:32.977</time></trkpt><trkpt lat="56.2844800" lon="44.0239220"><time>2019-01-20T08:20:35.983</time></trkpt><trkpt lat="56.2845380" lon="44.0239220"><time>2019-01-20T08:20:38.977</time></trkpt><trkpt lat="56.2845920" lon="44.0239120"><time>2019-01-20T08:20:40.977</time></trkpt><trkpt lat="56.2846450" lon="44.0239370"><time>2019-01-20T08:20:43.977</time></trkpt><trkpt lat="56.2846920" lon="44.0239550"><time>2019-01-20T08:20:45.977</time></trkpt><trkpt lat="56.2847430" lon="44.0239750"><time>2019-01-20T08:20:47.983</time></trkpt><trkpt lat="56.2847900" lon="44.0240130"><time>2019-01-20T08:20:50.977</time></trkpt><trkpt lat="56.2848450" lon="44.0240200"><time>2019-01-20T08:20:55.977</time></trkpt><trkpt lat="56.2848920" lon="44.0240300"><time>2019-01-20T08:20:58.977</time></trkpt><trkpt lat="56.2849450" lon="44.0240300"><time>2019-01-20T08:21:00.977</time></trkpt><trkpt lat="56.2849900" lon="44.0240420"><time>2019-01-20T08:21:02.977</time></trkpt><trkpt lat="56.2850600" lon="44.0240600"><time>2019-01-20T08:21:05.983</time></trkpt><trkpt lat="56.2851030" lon="44.0240980"><time>2019-01-20T08:21:08.977</time></trkpt><trkpt lat="56.2851550" lon="44.0241180"><time>2019-01-20T08:21:10.980</time></trkpt><trkpt lat="56.2852150" lon="44.0241650"><time>2019-01-20T08:21:13.977</time></trkpt><trkpt lat="56.2852620" lon="44.0241800"><time>2019-01-20T08:21:15.977</time></trkpt><trkpt lat="56.2853080" lon="44.0242080"><time>2019-01-20T08:21:18.977</time></trkpt><trkpt lat="56.2853530" lon="44.0242480"><time>2019-01-20T08:21:21.977</time></trkpt><trkpt lat="56.2854080" lon="44.0242870"><time>2019-01-20T08:21:24.977</time></trkpt><trkpt lat="56.2854530" lon="44.0243100"><time>2019-01-20T08:21:27.977</time></trkpt><trkpt lat="56.2855130" lon="44.0243380"><time>2019-01-20T08:21:30.977</time></trkpt><trkpt lat="56.2855620" lon="44.0243470"><time>2019-01-20T08:21:32.977</time></trkpt><trkpt lat="56.2856070" lon="44.0243620"><time>2019-01-20T08:21:35.983</time></trkpt><trkpt lat="56.2856500" lon="44.0244030"><time>2019-01-20T08:21:39.977</time></trkpt><trkpt lat="56.2856980" lon="44.0244300"><time>2019-01-20T08:21:42.977</time></trkpt><trkpt lat="56.2857420" lon="44.0244520"><time>2019-01-20T08:21:44.980</time></trkpt><trkpt lat="56.2857830" lon="44.0244870"><time>2019-01-20T08:21:47.983</time></trkpt><trkpt lat="56.2858280" lon="44.0245270"><time>2019-01-20T08:21:51.977</time></trkpt><trkpt lat="56.2858850" lon="44.0245630"><time>2019-01-20T08:21:55.977</time></trkpt><trkpt lat="56.2859230" lon="44.0246230"><time>2019-01-20T08:21:59.983</time></trkpt><trkpt lat="56.2859720" lon="44.0246750"><time>2019-01-20T08:22:03.977</time></trkpt><trkpt lat="56.2860100" lon="44.0247300"><time>2019-01-20T08:22:08.977</time></trkpt><trkpt lat="56.2860380" lon="44.0247980"><time>2019-01-20T08:22:13.977</time></trkpt><trkpt lat="56.2860670" lon="44.0248780"><time>2019-01-20T08:22:18.977</time></trkpt><trkpt lat="56.2861070" lon="44.0249280"><time>2019-01-20T08:22:23.983</time></trkpt><trkpt lat="56.2861420" lon="44.0249820"><time>2019-01-20T08:22:27.980</time></trkpt><trkpt lat="56.2861800" lon="44.0250530"><time>2019-01-20T08:22:31.977</time></trkpt><trkpt lat="56.2862130" lon="44.0251180"><time>2019-01-20T08:22:35.983</time></trkpt><trkpt lat="56.2862520" lon="44.0251670"><time>2019-01-20T08:22:39.017</time></trkpt><trkpt lat="56.2863000" lon="44.0252180"><time>2019-01-20T08:22:41.983</time></trkpt><trkpt lat="56.2863450" lon="44.0252550"><time>2019-01-20T08:22:44.977</time></trkpt><trkpt lat="56.2863900" lon="44.0253100"><time>2019-01-20T08:22:47.980</time></trkpt><trkpt lat="56.2864300" lon="44.0253780"><time>2019-01-20T08:22:50.980</time></trkpt><trkpt lat="56.2864630" lon="44.0254330"><time>2019-01-20T08:22:52.977</time></trkpt><trkpt lat="56.2865150" lon="44.0254980"><time>2019-01-20T08:22:55.977</time></trkpt><trkpt lat="56.2865670" lon="44.0255600"><time>2019-01-20T08:22:58.977</time></trkpt><trkpt lat="56.2866100" lon="44.0255970"><time>2019-01-20T08:23:01.977</time></trkpt><trkpt lat="56.2866470" lon="44.0256480"><time>2019-01-20T08:23:03.977</time></trkpt><trkpt lat="56.2866870" lon="44.0257030"><time>2019-01-20T08:23:05.980</time></trkpt><trkpt lat="56.2867400" lon="44.0257530"><time>2019-01-20T08:23:08.980</time></trkpt><trkpt lat="56.2867830" lon="44.0258170"><time>2019-01-20T08:23:10.977</time></trkpt><trkpt lat="56.2868300" lon="44.0258600"><time>2019-01-20T08:23:12.977</time></trkpt><trkpt lat="56.2868730" lon="44.0258970"><time>2019-01-20T08:23:14.977</time></trkpt><trkpt lat="56.2869300" lon="44.0259620"><time>2019-01-20T08:23:17.983</time></trkpt><trkpt lat="56.2869770" lon="44.0260120"><time>2019-01-20T08:23:20.983</time></trkpt><trkpt lat="56.2870200" lon="44.0260620"><time>2019-01-20T08:23:23.977</time></trkpt><trkpt lat="56.2870730" lon="44.0260930"><time>2019-01-20T08:23:25.980</time></trkpt><trkpt lat="56.2871200" lon="44.0261330"><time>2019-01-20T08:23:27.983</time></trkpt><trkpt lat="56.2871700" lon="44.0261730"><time>2019-01-20T08:23:29.980</time></trkpt><trkpt lat="56.2872100" lon="44.0262150"><time>2019-01-20T08:23:31.977</time></trkpt><trkpt lat="56.2872580" lon="44.0262400"><time>2019-01-20T08:23:33.977</time></trkpt><trkpt lat="56.2873200" lon="44.0262800"><time>2019-01-20T08:23:36.977</time></trkpt><trkpt lat="56.2873820" lon="44.0263000"><time>2019-01-20T08:23:39.977</time></trkpt><trkpt lat="56.2874420" lon="44.0263050"><time>2019-01-20T08:23:42.980</time></trkpt><trkpt lat="56.2875000" lon="44.0262770"><time>2019-01-20T08:23:45.977</time></trkpt><trkpt lat="56.2875630" lon="44.0262650"><time>2019-01-20T08:23:48.977</time></trkpt><trkpt lat="56.2876350" lon="44.0262470"><time>2019-01-20T08:23:51.977</time></trkpt><trkpt lat="56.2876920" lon="44.0262430"><time>2019-01-20T08:23:53.983</time></trkpt><trkpt lat="56.2877370" lon="44.0262550"><time>2019-01-20T08:23:55.977</time></trkpt><trkpt lat="56.2878020" lon="44.0262830"><time>2019-01-20T08:23:58.977</time></trkpt><trkpt lat="56.2878520" lon="44.0263050"><time>2019-01-20T08:24:00.977</time></trkpt><trkpt lat="56.2879070" lon="44.0263270"><time>2019-01-20T08:24:02.977</time></trkpt><trkpt lat="56.2879550" lon="44.0263520"><time>2019-01-20T08:24:04.977</time></trkpt><trkpt lat="56.2880220" lon="44.0263680"><time>2019-01-20T08:24:07.977</time></trkpt><trkpt lat="56.2880750" lon="44.0263980"><time>2019-01-20T08:24:09.977</time></trkpt><trkpt lat="56.2881380" lon="44.0264180"><time>2019-01-20T08:24:12.977</time></trkpt><trkpt lat="56.2881920" lon="44.0264300"><time>2019-01-20T08:24:14.977</time></trkpt><trkpt lat="56.2882530" lon="44.0264520"><time>2019-01-20T08:24:17.983</time></trkpt><trkpt lat="56.2883100" lon="44.0264530"><time>2019-01-20T08:24:19.977</time></trkpt><trkpt lat="56.2883650" lon="44.0264500"><time>2019-01-20T08:24:21.977</time></trkpt><trkpt lat="56.2884370" lon="44.0264800"><time>2019-01-20T08:24:24.977</time></trkpt><trkpt lat="56.2884900" lon="44.0264820"><time>2019-01-20T08:24:26.980</time></trkpt><trkpt lat="56.2885420" lon="44.0264920"><time>2019-01-20T08:24:28.980</time></trkpt><trkpt lat="56.2886000" lon="44.0265150"><time>2019-01-20T08:24:31.980</time></trkpt><trkpt lat="56.2886580" lon="44.0265720"><time>2019-01-20T08:24:34.977</time></trkpt><trkpt lat="56.2886970" lon="44.0266180"><time>2019-01-20T08:24:36.980</time></trkpt><trkpt lat="56.2887480" lon="44.0267030"><time>2019-01-20T08:24:39.977</time></trkpt><trkpt lat="56.2887880" lon="44.0267730"><time>2019-01-20T08:24:41.987</time></trkpt><trkpt lat="56.2888270" lon="44.0268200"><time>2019-01-20T08:24:43.977</time></trkpt><trkpt lat="56.2888730" lon="44.0268770"><time>2019-01-20T08:24:45.977</time></trkpt><trkpt lat="56.2889070" lon="44.0269430"><time>2019-01-20T08:24:47.980</time></trkpt><trkpt lat="56.2889480" lon="44.0270100"><time>2019-01-20T08:24:49.977</time></trkpt><trkpt lat="56.2889980" lon="44.0270630"><time>2019-01-20T08:24:51.977</time></trkpt><trkpt lat="56.2890420" lon="44.0271080"><time>2019-01-20T08:24:53.983</time></trkpt><trkpt lat="56.2890880" lon="44.0271580"><time>2019-01-20T08:24:55.977</time></trkpt><trkpt lat="56.2891520" lon="44.0271880"><time>2019-01-20T08:24:58.977</time></trkpt><trkpt lat="56.2892000" lon="44.0271870"><time>2019-01-20T08:25:00.977</time></trkpt><trkpt lat="56.2892370" lon="44.0271370"><time>2019-01-20T08:25:07.450</time></trkpt><trkpt lat="56.2892350" lon="44.0271100"><time>2019-01-20T08:25:11.087</time></trkpt><trkpt lat="56.2892880" lon="44.0271220"><time>2019-01-20T08:25:16.977</time></trkpt><trkpt lat="56.2893050" lon="44.0270380"><time>2019-01-20T08:25:19.977</time></trkpt><trkpt lat="56.2893050" lon="44.0269220"><time>2019-01-20T08:25:22.980</time></trkpt><trkpt lat="56.2893020" lon="44.0268230"><time>2019-01-20T08:25:25.977</time></trkpt><trkpt lat="56.2892970" lon="44.0267270"><time>2019-01-20T08:25:28.977</time></trkpt><trkpt lat="56.2892920" lon="44.0266330"><time>2019-01-20T08:25:31.977</time></trkpt><trkpt lat="56.2892730" lon="44.0265220"><time>2019-01-20T08:25:34.977</time></trkpt><trkpt lat="56.2892680" lon="44.0264400"><time>2019-01-20T08:25:36.977</time></trkpt><trkpt lat="56.2892670" lon="44.0263380"><time>2019-01-20T08:25:38.980</time></trkpt><trkpt lat="56.2892680" lon="44.0262400"><time>2019-01-20T08:25:40.977</time></trkpt><trkpt lat="56.2892780" lon="44.0261570"><time>2019-01-20T08:25:42.977</time></trkpt><trkpt lat="56.2892720" lon="44.0260370"><time>2019-01-20T08:25:45.983</time></trkpt><trkpt lat="56.2892720" lon="44.0259520"><time>2019-01-20T08:25:47.983</time></trkpt><trkpt lat="56.2892680" lon="44.0258680"><time>2019-01-20T08:25:49.977</time></trkpt><trkpt lat="56.2892630" lon="44.0257720"><time>2019-01-20T08:25:51.977</time></trkpt><trkpt lat="56.2892620" lon="44.0256600"><time>2019-01-20T08:25:53.983</time></trkpt><trkpt lat="56.2892570" lon="44.0255680"><time>2019-01-20T08:25:55.980</time></trkpt><trkpt lat="56.2892450" lon="44.0254820"><time>2019-01-20T08:25:58.977</time></trkpt><trkpt lat="56.2892400" lon="44.0253680"><time>2019-01-20T08:26:01.977</time></trkpt><trkpt lat="56.2892420" lon="44.0252770"><time>2019-01-20T08:26:04.977</time></trkpt><trkpt lat="56.2892450" lon="44.0251630"><time>2019-01-20T08:26:07.977</time></trkpt><trkpt lat="56.2892550" lon="44.0250580"><time>2019-01-20T08:26:10.977</time></trkpt><trkpt lat="56.2892580" lon="44.0249600"><time>2019-01-20T08:26:12.977</time></trkpt><trkpt lat="56.2892630" lon="44.0248400"><time>2019-01-20T08:26:15.977</time></trkpt><trkpt lat="56.2892550" lon="44.0247600"><time>2019-01-20T08:26:17.983</time></trkpt><trkpt lat="56.2892470" lon="44.0246280"><time>2019-01-20T08:26:20.977</time></trkpt><trkpt lat="56.2892380" lon="44.0245170"><time>2019-01-20T08:26:22.977</time></trkpt><trkpt lat="56.2892330" lon="44.0244220"><time>2019-01-20T08:26:24.980</time></trkpt><trkpt lat="56.2892270" lon="44.0243320"><time>2019-01-20T08:26:26.977</time></trkpt><trkpt lat="56.2892200" lon="44.0242270"><time>2019-01-20T08:26:29.987</time></trkpt><trkpt lat="56.2892180" lon="44.0241100"><time>2019-01-20T08:26:32.977</time></trkpt><trkpt lat="56.2892330" lon="44.0240130"><time>2019-01-20T08:26:35.983</time></trkpt><trkpt lat="56.2892350" lon="44.0238950"><time>2019-01-20T08:26:38.977</time></trkpt><trkpt lat="56.2892270" lon="44.0238030"><time>2019-01-20T08:26:40.980</time></trkpt><trkpt lat="56.2892250" lon="44.0237120"><time>2019-01-20T08:26:43.977</time></trkpt><trkpt lat="56.2892220" lon="44.0236250"><time>2019-01-20T08:26:45.977</time></trkpt><trkpt lat="56.2892100" lon="44.0235220"><time>2019-01-20T08:26:48.977</time></trkpt><trkpt lat="56.2892050" lon="44.0234170"><time>2019-01-20T08:26:52.977</time></trkpt><trkpt lat="56.2891980" lon="44.0233150"><time>2019-01-20T08:26:55.977</time></trkpt><trkpt lat="56.2891780" lon="44.0232030"><time>2019-01-20T08:26:58.977</time></trkpt><trkpt lat="56.2891600" lon="44.0231250"><time>2019-01-20T08:27:00.980</time></trkpt><trkpt lat="56.2891520" lon="44.0230430"><time>2019-01-20T08:27:03.977</time></trkpt><trkpt lat="56.2891420" lon="44.0229430"><time>2019-01-20T08:27:06.980</time></trkpt><trkpt lat="56.2891170" lon="44.0228300"><time>2019-01-20T08:27:10.010</time></trkpt><trkpt lat="56.2890930" lon="44.0227500"><time>2019-01-20T08:27:12.980</time></trkpt><trkpt lat="56.2890770" lon="44.0226480"><time>2019-01-20T08:27:16.977</time></trkpt><trkpt lat="56.2890520" lon="44.0225480"><time>2019-01-20T08:27:19.980</time></trkpt><trkpt lat="56.2890520" lon="44.0224650"><time>2019-01-20T08:27:21.977</time></trkpt><trkpt lat="56.2890250" lon="44.0223670"><time>2019-01-20T08:27:24.977</time></trkpt><trkpt lat="56.2890100" lon="44.0222720"><time>2019-01-20T08:27:26.980</time></trkpt><trkpt lat="56.2889950" lon="44.0221830"><time>2019-01-20T08:27:29.980</time></trkpt><trkpt lat="56.2889900" lon="44.0220920"><time>2019-01-20T08:27:31.977</time></trkpt><trkpt lat="56.2889820" lon="44.0219720"><time>2019-01-20T08:27:34.977</time></trkpt><trkpt lat="56.2889720" lon="44.0218630"><time>2019-01-20T08:27:37.977</time></trkpt><trkpt lat="56.2889720" lon="44.0217470"><time>2019-01-20T08:27:40.977</time></trkpt><trkpt lat="56.2889670" lon="44.0216400"><time>2019-01-20T08:27:43.977</time></trkpt><trkpt lat="56.2889530" lon="44.0215370"><time>2019-01-20T08:27:46.977</time></trkpt><trkpt lat="56.2889500" lon="44.0214320"><time>2019-01-20T08:27:50.980</time></trkpt><trkpt lat="56.2889570" lon="44.0213400"><time>2019-01-20T08:27:53.983</time></trkpt><trkpt lat="56.2889500" lon="44.0212380"><time>2019-01-20T08:27:56.977</time></trkpt><trkpt lat="56.2889380" lon="44.0211270"><time>2019-01-20T08:27:59.983</time></trkpt><trkpt lat="56.2889450" lon="44.0210320"><time>2019-01-20T08:28:01.977</time></trkpt><trkpt lat="56.2889450" lon="44.0209370"><time>2019-01-20T08:28:03.977</time></trkpt><trkpt lat="56.2889300" lon="44.0208370"><time>2019-01-20T08:28:06.977</time></trkpt><trkpt lat="56.2889420" lon="44.0207530"><time>2019-01-20T08:28:09.050</time></trkpt><trkpt lat="56.2889470" lon="44.0206300"><time>2019-01-20T08:28:11.983</time></trkpt><trkpt lat="56.2889330" lon="44.0205120"><time>2019-01-20T08:28:13.977</time></trkpt><trkpt lat="56.2889230" lon="44.0204130"><time>2019-01-20T08:28:15.977</time></trkpt><trkpt lat="56.2889230" lon="44.0203180"><time>2019-01-20T08:28:17.987</time></trkpt><trkpt lat="56.2889200" lon="44.0202220"><time>2019-01-20T08:28:20.980</time></trkpt><trkpt lat="56.2889230" lon="44.0201150"><time>2019-01-20T08:28:23.983</time></trkpt><trkpt lat="56.2889320" lon="44.0200270"><time>2019-01-20T08:28:25.977</time></trkpt><trkpt lat="56.2889230" lon="44.0199370"><time>2019-01-20T08:28:27.977</time></trkpt><trkpt lat="56.2889050" lon="44.0198200"><time>2019-01-20T08:28:29.980</time></trkpt><trkpt lat="56.2889230" lon="44.0197430"><time>2019-01-20T08:28:31.980</time></trkpt><trkpt lat="56.2889450" lon="44.0196020"><time>2019-01-20T08:28:34.980</time></trkpt><trkpt lat="56.2889550" lon="44.0195000"><time>2019-01-20T08:28:37.977</time></trkpt><trkpt lat="56.2889630" lon="44.0194180"><time>2019-01-20T08:28:39.977</time></trkpt><trkpt lat="56.2889670" lon="44.0193250"><time>2019-01-20T08:28:41.980</time></trkpt><trkpt lat="56.2889750" lon="44.0192280"><time>2019-01-20T08:28:43.977</time></trkpt><trkpt lat="56.2889800" lon="44.0191270"><time>2019-01-20T08:28:45.980</time></trkpt><trkpt lat="56.2890020" lon="44.0190170"><time>2019-01-20T08:28:49.977</time></trkpt><trkpt lat="56.2890100" lon="44.0189320"><time>2019-01-20T08:28:51.977</time></trkpt><trkpt lat="56.2890220" lon="44.0188170"><time>2019-01-20T08:28:54.977</time></trkpt><trkpt lat="56.2890370" lon="44.0187180"><time>2019-01-20T08:28:57.977</time></trkpt><trkpt lat="56.2890520" lon="44.0186150"><time>2019-01-20T08:29:00.980</time></trkpt><trkpt lat="56.2890650" lon="44.0185300"><time>2019-01-20T08:29:02.980</time></trkpt><trkpt lat="56.2890930" lon="44.0184350"><time>2019-01-20T08:29:05.987</time></trkpt><trkpt lat="56.2891080" lon="44.0183270"><time>2019-01-20T08:29:08.977</time></trkpt><trkpt lat="56.2891120" lon="44.0182280"><time>2019-01-20T08:29:10.977</time></trkpt><trkpt lat="56.2891250" lon="44.0181050"><time>2019-01-20T08:29:12.980</time></trkpt><trkpt lat="56.2891370" lon="44.0179880"><time>2019-01-20T08:29:14.977</time></trkpt><trkpt lat="56.2891430" lon="44.0178930"><time>2019-01-20T08:29:15.977</time></trkpt><trkpt lat="56.2891530" lon="44.0177980"><time>2019-01-20T08:29:17.983</time></trkpt><trkpt lat="56.2891770" lon="44.0176820"><time>2019-01-20T08:29:19.977</time></trkpt><trkpt lat="56.2891870" lon="44.0175920"><time>2019-01-20T08:29:21.977</time></trkpt><trkpt lat="56.2892270" lon="44.0174970"><time>2019-01-20T08:29:24.977</time></trkpt><trkpt lat="56.2892480" lon="44.0173770"><time>2019-01-20T08:29:26.977</time></trkpt><trkpt lat="56.2892830" lon="44.0172830"><time>2019-01-20T08:29:28.977</time></trkpt><trkpt lat="56.2893170" lon="44.0171930"><time>2019-01-20T08:29:30.980</time></trkpt><trkpt lat="56.2893520" lon="44.0170750"><time>2019-01-20T08:29:32.977</time></trkpt><trkpt lat="56.2893950" lon="44.0169980"><time>2019-01-20T08:29:34.977</time></trkpt><trkpt lat="56.2894330" lon="44.0169230"><time>2019-01-20T08:29:36.980</time></trkpt><trkpt lat="56.2894700" lon="44.0168370"><time>2019-01-20T08:29:38.977</time></trkpt><trkpt lat="56.2895170" lon="44.0167720"><time>2019-01-20T08:29:40.977</time></trkpt><trkpt lat="56.2895650" lon="44.0166930"><time>2019-01-20T08:29:42.977</time></trkpt><trkpt lat="56.2896100" lon="44.0166320"><time>2019-01-20T08:29:44.977</time></trkpt><trkpt lat="56.2896520" lon="44.0165620"><time>2019-01-20T08:29:46.977</time></trkpt><trkpt lat="56.2896920" lon="44.0164820"><time>2019-01-20T08:29:48.977</time></trkpt><trkpt lat="56.2897350" lon="44.0164180"><time>2019-01-20T08:29:50.977</time></trkpt><trkpt lat="56.2897870" lon="44.0163580"><time>2019-01-20T08:29:52.977</time></trkpt><trkpt lat="56.2898370" lon="44.0163080"><time>2019-01-20T08:29:54.977</time></trkpt><trkpt lat="56.2898880" lon="44.0162580"><time>2019-01-20T08:29:56.977</time></trkpt><trkpt lat="56.2899330" lon="44.0161950"><time>2019-01-20T08:29:58.977</time></trkpt><trkpt lat="56.2899720" lon="44.0161420"><time>2019-01-20T08:30:01.010</time></trkpt><trkpt lat="56.2900080" lon="44.0160700"><time>2019-01-20T08:30:02.980</time></trkpt><trkpt lat="56.2900430" lon="44.0160070"><time>2019-01-20T08:30:04.977</time></trkpt><trkpt lat="56.2900830" lon="44.0159470"><time>2019-01-20T08:30:06.977</time></trkpt><trkpt lat="56.2901230" lon="44.0158870"><time>2019-01-20T08:30:08.977</time></trkpt><trkpt lat="56.2901620" lon="44.0158230"><time>2019-01-20T08:30:10.980</time></trkpt><trkpt lat="56.2901950" lon="44.0157670"><time>2019-01-20T08:30:12.980</time></trkpt><trkpt lat="56.2902270" lon="44.0157030"><time>2019-01-20T08:30:14.977</time></trkpt><trkpt lat="56.2902670" lon="44.0156620"><time>2019-01-20T08:30:17.980</time></trkpt><trkpt lat="56.2903080" lon="44.0155770"><time>2019-01-20T08:30:20.980</time></trkpt><trkpt lat="56.2903320" lon="44.0154830"><time>2019-01-20T08:30:23.977</time></trkpt><trkpt lat="56.2903570" lon="44.0153970"><time>2019-01-20T08:30:25.977</time></trkpt><trkpt lat="56.2903920" lon="44.0153230"><time>2019-01-20T08:30:27.977</time></trkpt><trkpt lat="56.2904250" lon="44.0152470"><time>2019-01-20T08:30:29.980</time></trkpt><trkpt lat="56.2904530" lon="44.0151630"><time>2019-01-20T08:30:31.983</time></trkpt><trkpt lat="56.2904800" lon="44.0150750"><time>2019-01-20T08:30:33.980</time></trkpt><trkpt lat="56.2905030" lon="44.0150020"><time>2019-01-20T08:30:35.983</time></trkpt><trkpt lat="56.2905320" lon="44.0149150"><time>2019-01-20T08:30:38.977</time></trkpt><trkpt lat="56.2905700" lon="44.0148200"><time>2019-01-20T08:30:41.990</time></trkpt><trkpt lat="56.2906020" lon="44.0147450"><time>2019-01-20T08:30:45.010</time></trkpt><trkpt lat="56.2906350" lon="44.0146520"><time>2019-01-20T08:30:47.980</time></trkpt><trkpt lat="56.2906680" lon="44.0145770"><time>2019-01-20T08:30:50.977</time></trkpt><trkpt lat="56.2907120" lon="44.0145070"><time>2019-01-20T08:30:54.980</time></trkpt><trkpt lat="56.2907720" lon="44.0144580"><time>2019-01-20T08:30:57.977</time></trkpt><trkpt lat="56.2908270" lon="44.0144280"><time>2019-01-20T08:31:00.977</time></trkpt><trkpt lat="56.2908800" lon="44.0144080"><time>2019-01-20T08:31:03.977</time></trkpt><trkpt lat="56.2909270" lon="44.0143680"><time>2019-01-20T08:31:10.983</time></trkpt></trkseg></trk></gpx>